<?xml version="1.0" encoding="UTF-8"?>
<gpx version="1.1" creator="https://www.youtrack.es" xsi:schemaLocation="http://www.topografix.com/GPX/1/1 http://www.topografix.com/GPX/1/1/gpx.xsd http://www.garmin.com/xmlschemas/GpxExtensions/v3 http://www.garmin.com/xmlschemas/GpxExtensionsv3.xsd http://www.garmin.com/xmlschemas/TrackPointExtension/v1 http://www.garmin.com/xmlschemas/TrackPointExtensionv1.xsd" xmlns:gpxtpx="http://www.garmin.com/xmlschemas/TrackPointExtension/v1" xmlns:gpxx="http://www.garmin.com/xmlschemas/GpxExtensions/v3" xmlns:xsi="http://www.w3.org/2001/XMLSchema-instance">
  <metadata>
    <author>
      <name>Omar Álvarez</name>
      <email id="omaralgu" domain="gmail.com"/>
    </author>
    <link href="https://www.youtrack.es">
      <text>YouTrack.es</text>
    </link>
    <time>2026-05-07T18:27:34Z</time>
  </metadata>
  <trk>
    <src>https://www.youtrack.es</src>
    <link href="https://www.youtrack.es/ruta/21700-estany-llong-al-refugio-amitges">
      <text>YouTrack.es</text>
    </link>
    <trkseg>
      <trkpt lat="42.551619" lon="0.912610">
        <ele>1761.854</ele>
        <time>2012-07-29T08:29:58Z</time>
      </trkpt>
      <trkpt lat="42.551169" lon="0.914162">
        <ele>1767.556</ele>
        <time>2012-07-29T08:36:17Z</time>
      </trkpt>
      <trkpt lat="42.551334" lon="0.915148">
        <ele>1770.911</ele>
        <time>2012-07-29T08:37:24Z</time>
      </trkpt>
      <trkpt lat="42.551864" lon="0.916485">
        <ele>1773.807</ele>
        <time>2012-07-29T08:39:52Z</time>
      </trkpt>
      <trkpt lat="42.552018" lon="0.917530">
        <ele>1779.158</ele>
        <time>2012-07-29T08:43:37Z</time>
      </trkpt>
      <trkpt lat="42.552363" lon="0.917918">
        <ele>1781.989</ele>
        <time>2012-07-29T08:44:27Z</time>
      </trkpt>
      <trkpt lat="42.552737" lon="0.918994">
        <ele>1783.945</ele>
        <time>2012-07-29T08:46:06Z</time>
      </trkpt>
      <trkpt lat="42.553622" lon="0.920367">
        <ele>1785.373</ele>
        <time>2012-07-29T08:47:51Z</time>
      </trkpt>
      <trkpt lat="42.553866" lon="0.921376">
        <ele>1787.273</ele>
        <time>2012-07-29T08:48:53Z</time>
      </trkpt>
      <trkpt lat="42.554568" lon="0.921589">
        <ele>1791.186</ele>
        <time>2012-07-29T08:50:14Z</time>
      </trkpt>
      <trkpt lat="42.554844" lon="0.922343">
        <ele>1790.658</ele>
        <time>2012-07-29T08:51:05Z</time>
      </trkpt>
      <trkpt lat="42.555998" lon="0.923721">
        <ele>1791.661</ele>
        <time>2012-07-29T08:53:07Z</time>
      </trkpt>
      <trkpt lat="42.556438" lon="0.924150">
        <ele>1793.521</ele>
        <time>2012-07-29T08:53:51Z</time>
      </trkpt>
      <trkpt lat="42.556760" lon="0.923984">
        <ele>1796.413</ele>
        <time>2012-07-29T08:54:20Z</time>
      </trkpt>
      <trkpt lat="42.557875" lon="0.924765">
        <ele>1809.307</ele>
        <time>2012-07-29T08:57:43Z</time>
      </trkpt>
      <trkpt lat="42.558629" lon="0.925057">
        <ele>1815.629</ele>
        <time>2012-07-29T08:59:05Z</time>
      </trkpt>
      <trkpt lat="42.558522" lon="0.924953">
        <ele>1815.680</ele>
        <time>2012-07-29T08:59:13Z</time>
      </trkpt>
      <trkpt lat="42.557916" lon="0.924683">
        <ele>1809.826</ele>
        <time>2012-07-29T08:59:57Z</time>
      </trkpt>
      <trkpt lat="42.558747" lon="0.925134">
        <ele>1817.554</ele>
        <time>2012-07-29T09:00:58Z</time>
      </trkpt>
      <trkpt lat="42.559016" lon="0.925596">
        <ele>1822.394</ele>
        <time>2012-07-29T09:01:28Z</time>
      </trkpt>
      <trkpt lat="42.559629" lon="0.926124">
        <ele>1827.657</ele>
        <time>2012-07-29T09:02:21Z</time>
      </trkpt>
      <trkpt lat="42.560897" lon="0.926347">
        <ele>1832.499</ele>
        <time>2012-07-29T09:03:52Z</time>
      </trkpt>
      <trkpt lat="42.562351" lon="0.926229">
        <ele>1848.341</ele>
        <time>2012-07-29T09:05:47Z</time>
      </trkpt>
      <trkpt lat="42.562928" lon="0.926595">
        <ele>1851.681</ele>
        <time>2012-07-29T09:06:35Z</time>
      </trkpt>
      <trkpt lat="42.563346" lon="0.926517">
        <ele>1851.609</ele>
        <time>2012-07-29T09:07:05Z</time>
      </trkpt>
      <trkpt lat="42.563766" lon="0.926670">
        <ele>1856.007</ele>
        <time>2012-07-29T09:07:41Z</time>
      </trkpt>
      <trkpt lat="42.565320" lon="0.928197">
        <ele>1865.697</ele>
        <time>2012-07-29T09:10:15Z</time>
      </trkpt>
      <trkpt lat="42.565873" lon="0.928362">
        <ele>1864.628</ele>
        <time>2012-07-29T09:10:59Z</time>
      </trkpt>
      <trkpt lat="42.566691" lon="0.929340">
        <ele>1864.644</ele>
        <time>2012-07-29T09:12:32Z</time>
      </trkpt>
      <trkpt lat="42.567260" lon="0.929537">
        <ele>1862.782</ele>
        <time>2012-07-29T09:13:21Z</time>
      </trkpt>
      <trkpt lat="42.567850" lon="0.930753">
        <ele>1864.622</ele>
        <time>2012-07-29T09:14:54Z</time>
      </trkpt>
      <trkpt lat="42.568316" lon="0.931384">
        <ele>1867.065</ele>
        <time>2012-07-29T09:16:58Z</time>
      </trkpt>
      <trkpt lat="42.569321" lon="0.932015">
        <ele>1868.027</ele>
        <time>2012-07-29T09:18:29Z</time>
      </trkpt>
      <trkpt lat="42.569765" lon="0.934525">
        <ele>1876.233</ele>
        <time>2012-07-29T09:23:04Z</time>
      </trkpt>
      <trkpt lat="42.568972" lon="0.935009">
        <ele>1884.823</ele>
        <time>2012-07-29T09:25:30Z</time>
      </trkpt>
      <trkpt lat="42.570225" lon="0.936545">
        <ele>1908.815</ele>
        <time>2012-07-29T09:28:06Z</time>
      </trkpt>
      <trkpt lat="42.570780" lon="0.937983">
        <ele>1923.707</ele>
        <time>2012-07-29T09:30:16Z</time>
      </trkpt>
      <trkpt lat="42.570919" lon="0.938042">
        <ele>1926.676</ele>
        <time>2012-07-29T09:30:34Z</time>
      </trkpt>
      <trkpt lat="42.571234" lon="0.937872">
        <ele>1928.177</ele>
        <time>2012-07-29T09:31:01Z</time>
      </trkpt>
      <trkpt lat="42.571261" lon="0.938741">
        <ele>1935.823</ele>
        <time>2012-07-29T09:32:12Z</time>
      </trkpt>
      <trkpt lat="42.571669" lon="0.939504">
        <ele>1943.021</ele>
        <time>2012-07-29T09:33:37Z</time>
      </trkpt>
      <trkpt lat="42.571838" lon="0.940457">
        <ele>1946.331</ele>
        <time>2012-07-29T09:34:55Z</time>
      </trkpt>
      <trkpt lat="42.571787" lon="0.940942">
        <ele>1948.734</ele>
        <time>2012-07-29T09:35:24Z</time>
      </trkpt>
      <trkpt lat="42.571865" lon="0.941155">
        <ele>1950.766</ele>
        <time>2012-07-29T09:35:44Z</time>
      </trkpt>
      <trkpt lat="42.572654" lon="0.941830">
        <ele>1951.656</ele>
        <time>2012-07-29T09:36:39Z</time>
      </trkpt>
      <trkpt lat="42.572619" lon="0.942559">
        <ele>1952.659</ele>
        <time>2012-07-29T09:38:11Z</time>
      </trkpt>
      <trkpt lat="42.572447" lon="0.942294">
        <ele>1953.114</ele>
        <time>2012-07-29T09:38:54Z</time>
      </trkpt>
      <trkpt lat="42.573093" lon="0.944196">
        <ele>1952.607</ele>
        <time>2012-07-29T09:42:49Z</time>
      </trkpt>
      <trkpt lat="42.572806" lon="0.942503">
        <ele>1951.198</ele>
        <time>2012-07-29T09:43:18Z</time>
      </trkpt>
      <trkpt lat="42.572587" lon="0.942773">
        <ele>1951.179</ele>
        <time>2012-07-29T09:44:04Z</time>
      </trkpt>
      <trkpt lat="42.572525" lon="0.942223">
        <ele>1948.715</ele>
        <time>2012-07-29T09:44:11Z</time>
      </trkpt>
      <trkpt lat="42.572711" lon="0.942676">
        <ele>1952.123</ele>
        <time>2012-07-29T09:45:44Z</time>
      </trkpt>
      <trkpt lat="42.572582" lon="0.942619">
        <ele>1952.163</ele>
        <time>2012-07-29T09:46:01Z</time>
      </trkpt>
      <trkpt lat="42.572722" lon="0.942453">
        <ele>1952.176</ele>
        <time>2012-07-29T09:47:07Z</time>
      </trkpt>
      <trkpt lat="42.572777" lon="0.942747">
        <ele>1957.438</ele>
        <time>2012-07-29T09:48:51Z</time>
      </trkpt>
      <trkpt lat="42.572482" lon="0.943692">
        <ele>1971.315</ele>
        <time>2012-07-29T09:50:34Z</time>
      </trkpt>
      <trkpt lat="42.572586" lon="0.944979">
        <ele>1977.665</ele>
        <time>2012-07-29T09:52:11Z</time>
      </trkpt>
      <trkpt lat="42.572386" lon="0.945427">
        <ele>1976.111</ele>
        <time>2012-07-29T09:53:19Z</time>
      </trkpt>
      <trkpt lat="42.572356" lon="0.946746">
        <ele>1979.507</ele>
        <time>2012-07-29T09:55:06Z</time>
      </trkpt>
      <trkpt lat="42.572164" lon="0.947681">
        <ele>1975.214</ele>
        <time>2012-07-29T09:57:03Z</time>
      </trkpt>
      <trkpt lat="42.572839" lon="0.951293">
        <ele>1975.755</ele>
        <time>2012-07-29T10:01:07Z</time>
      </trkpt>
      <trkpt lat="42.572980" lon="0.952981">
        <ele>1983.381</ele>
        <time>2012-07-29T10:05:25Z</time>
      </trkpt>
      <trkpt lat="42.573441" lon="0.954390">
        <ele>1998.239</ele>
        <time>2012-07-29T10:07:33Z</time>
      </trkpt>
      <trkpt lat="42.573476" lon="0.954880">
        <ele>2005.049</ele>
        <time>2012-07-29T10:08:19Z</time>
      </trkpt>
      <trkpt lat="42.573103" lon="0.955525">
        <ele>2009.312</ele>
        <time>2012-07-29T10:10:13Z</time>
      </trkpt>
      <trkpt lat="42.572762" lon="0.956650">
        <ele>2025.294</ele>
        <time>2012-07-29T10:11:38Z</time>
      </trkpt>
      <trkpt lat="42.573047" lon="0.957372">
        <ele>2040.144</ele>
        <time>2012-07-29T10:13:17Z</time>
      </trkpt>
      <trkpt lat="42.572376" lon="0.957705">
        <ele>2054.005</ele>
        <time>2012-07-29T10:15:23Z</time>
      </trkpt>
      <trkpt lat="42.572332" lon="0.958072">
        <ele>2059.315</ele>
        <time>2012-07-29T10:15:56Z</time>
      </trkpt>
      <trkpt lat="42.572834" lon="0.958379">
        <ele>2066.507</ele>
        <time>2012-07-29T10:16:57Z</time>
      </trkpt>
      <trkpt lat="42.573534" lon="0.959399">
        <ele>2082.887</ele>
        <time>2012-07-29T10:19:11Z</time>
      </trkpt>
      <trkpt lat="42.573001" lon="0.959506">
        <ele>2093.918</ele>
        <time>2012-07-29T10:21:07Z</time>
      </trkpt>
      <trkpt lat="42.573164" lon="0.959834">
        <ele>2099.724</ele>
        <time>2012-07-29T10:22:07Z</time>
      </trkpt>
      <trkpt lat="42.573335" lon="0.959873">
        <ele>2102.552</ele>
        <time>2012-07-29T10:23:49Z</time>
      </trkpt>
      <trkpt lat="42.573412" lon="0.960371">
        <ele>2109.352</ele>
        <time>2012-07-29T10:24:32Z</time>
      </trkpt>
      <trkpt lat="42.572662" lon="0.961141">
        <ele>2123.735</ele>
        <time>2012-07-29T10:26:27Z</time>
      </trkpt>
      <trkpt lat="42.573113" lon="0.961716">
        <ele>2131.477</ele>
        <time>2012-07-29T10:27:57Z</time>
      </trkpt>
      <trkpt lat="42.573874" lon="0.962116">
        <ele>2144.472</ele>
        <time>2012-07-29T10:29:46Z</time>
      </trkpt>
      <trkpt lat="42.574293" lon="0.962670">
        <ele>2155.913</ele>
        <time>2012-07-29T10:32:26Z</time>
      </trkpt>
      <trkpt lat="42.574759" lon="0.962884">
        <ele>2162.614</ele>
        <time>2012-07-29T10:33:19Z</time>
      </trkpt>
      <trkpt lat="42.576420" lon="0.964314">
        <ele>2194.407</ele>
        <time>2012-07-29T10:37:34Z</time>
      </trkpt>
      <trkpt lat="42.575912" lon="0.964513">
        <ele>2210.710</ele>
        <time>2012-07-29T10:40:59Z</time>
      </trkpt>
      <trkpt lat="42.575171" lon="0.964522">
        <ele>2230.991</ele>
        <time>2012-07-29T10:42:52Z</time>
      </trkpt>
      <trkpt lat="42.574868" lon="0.964359">
        <ele>2238.147</ele>
        <time>2012-07-29T10:43:50Z</time>
      </trkpt>
      <trkpt lat="42.574963" lon="0.964937">
        <ele>2248.225</ele>
        <time>2012-07-29T10:45:07Z</time>
      </trkpt>
      <trkpt lat="42.575213" lon="0.965195">
        <ele>2255.965</ele>
        <time>2012-07-29T10:46:06Z</time>
      </trkpt>
      <trkpt lat="42.575840" lon="0.965462">
        <ele>2270.868</ele>
        <time>2012-07-29T10:48:03Z</time>
      </trkpt>
      <trkpt lat="42.576202" lon="0.965858">
        <ele>2283.370</ele>
        <time>2012-07-29T10:50:01Z</time>
      </trkpt>
      <trkpt lat="42.576386" lon="0.966338">
        <ele>2296.338</ele>
        <time>2012-07-29T10:51:13Z</time>
      </trkpt>
      <trkpt lat="42.576472" lon="0.967462">
        <ele>2311.270</ele>
        <time>2012-07-29T10:53:54Z</time>
      </trkpt>
      <trkpt lat="42.576660" lon="0.967824">
        <ele>2315.517</ele>
        <time>2012-07-29T10:55:44Z</time>
      </trkpt>
      <trkpt lat="42.577663" lon="0.967992">
        <ele>2328.907</ele>
        <time>2012-07-29T11:00:47Z</time>
      </trkpt>
      <trkpt lat="42.577976" lon="0.968309">
        <ele>2344.326</ele>
        <time>2012-07-29T11:02:27Z</time>
      </trkpt>
      <trkpt lat="42.578119" lon="0.969634">
        <ele>2370.357</ele>
        <time>2012-07-29T11:05:48Z</time>
      </trkpt>
      <trkpt lat="42.578476" lon="0.969397">
        <ele>2378.453</ele>
        <time>2012-07-29T11:07:46Z</time>
      </trkpt>
      <trkpt lat="42.578526" lon="0.969517">
        <ele>2380.821</ele>
        <time>2012-07-29T11:07:59Z</time>
      </trkpt>
      <trkpt lat="42.578569" lon="0.970660">
        <ele>2402.021</ele>
        <time>2012-07-29T11:10:09Z</time>
      </trkpt>
      <trkpt lat="42.578143" lon="0.972558">
        <ele>2424.144</ele>
        <time>2012-07-29T11:14:24Z</time>
      </trkpt>
      <trkpt lat="42.578210" lon="0.972851">
        <ele>2425.596</ele>
        <time>2012-07-29T11:15:26Z</time>
      </trkpt>
      <trkpt lat="42.579329" lon="0.974665">
        <ele>2412.672</ele>
        <time>2012-07-29T11:18:50Z</time>
      </trkpt>
      <trkpt lat="42.579228" lon="0.974808">
        <ele>2414.013</ele>
        <time>2012-07-29T11:19:14Z</time>
      </trkpt>
      <trkpt lat="42.579333" lon="0.976449">
        <ele>2386.114</ele>
        <time>2012-07-29T11:21:45Z</time>
      </trkpt>
      <trkpt lat="42.579426" lon="0.976472">
        <ele>2383.707</ele>
        <time>2012-07-29T11:21:57Z</time>
      </trkpt>
      <trkpt lat="42.579520" lon="0.976121">
        <ele>2378.410</ele>
        <time>2012-07-29T11:22:32Z</time>
      </trkpt>
      <trkpt lat="42.580087" lon="0.976920">
        <ele>2357.381</ele>
        <time>2012-07-29T11:25:17Z</time>
      </trkpt>
      <trkpt lat="42.580323" lon="0.976756">
        <ele>2351.017</ele>
        <time>2012-07-29T11:26:07Z</time>
      </trkpt>
      <trkpt lat="42.580248" lon="0.977026">
        <ele>2356.365</ele>
        <time>2012-07-29T12:16:01Z</time>
      </trkpt>
      <trkpt lat="42.580402" lon="0.977163">
        <ele>2351.055</ele>
        <time>2012-07-29T12:16:46Z</time>
      </trkpt>
      <trkpt lat="42.580603" lon="0.978193">
        <ele>2334.748</ele>
        <time>2012-07-29T12:18:34Z</time>
      </trkpt>
      <trkpt lat="42.580546" lon="0.978783">
        <ele>2326.130</ele>
        <time>2012-07-29T12:19:23Z</time>
      </trkpt>
      <trkpt lat="42.580742" lon="0.978406">
        <ele>2319.835</ele>
        <time>2012-07-29T12:20:04Z</time>
      </trkpt>
      <trkpt lat="42.580981" lon="0.978935">
        <ele>2309.786</ele>
        <time>2012-07-29T12:21:07Z</time>
      </trkpt>
      <trkpt lat="42.580843" lon="0.979969">
        <ele>2293.814</ele>
        <time>2012-07-29T12:23:27Z</time>
      </trkpt>
      <trkpt lat="42.580364" lon="0.979583">
        <ele>2285.707</ele>
        <time>2012-07-29T12:24:25Z</time>
      </trkpt>
      <trkpt lat="42.580091" lon="0.979544">
        <ele>2282.816</ele>
        <time>2012-07-29T12:24:45Z</time>
      </trkpt>
      <trkpt lat="42.579833" lon="0.979773">
        <ele>2278.567</ele>
        <time>2012-07-29T12:25:39Z</time>
      </trkpt>
      <trkpt lat="42.579879" lon="0.979963">
        <ele>2275.613</ele>
        <time>2012-07-29T12:25:57Z</time>
      </trkpt>
      <trkpt lat="42.580069" lon="0.980284">
        <ele>2272.281</ele>
        <time>2012-07-29T12:26:45Z</time>
      </trkpt>
      <trkpt lat="42.580380" lon="0.980440">
        <ele>2267.971</ele>
        <time>2012-07-29T12:27:30Z</time>
      </trkpt>
      <trkpt lat="42.580507" lon="0.980829">
        <ele>2261.644</ele>
        <time>2012-07-29T12:30:45Z</time>
      </trkpt>
      <trkpt lat="42.580888" lon="0.981282">
        <ele>2256.416</ele>
        <time>2012-07-29T12:31:31Z</time>
      </trkpt>
      <trkpt lat="42.581409" lon="0.982697">
        <ele>2244.842</ele>
        <time>2012-07-29T12:33:52Z</time>
      </trkpt>
      <trkpt lat="42.581410" lon="0.983339">
        <ele>2237.622</ele>
        <time>2012-07-29T12:34:42Z</time>
      </trkpt>
      <trkpt lat="42.581725" lon="0.984264">
        <ele>2222.714</ele>
        <time>2012-07-29T12:36:50Z</time>
      </trkpt>
      <trkpt lat="42.582367" lon="0.984718">
        <ele>2220.307</ele>
        <time>2012-07-29T12:38:24Z</time>
      </trkpt>
      <trkpt lat="42.582782" lon="0.984494">
        <ele>2218.987</ele>
        <time>2012-07-29T12:38:59Z</time>
      </trkpt>
      <trkpt lat="42.582597" lon="0.984948">
        <ele>2218.918</ele>
        <time>2012-07-29T12:39:54Z</time>
      </trkpt>
      <trkpt lat="42.582674" lon="0.985125">
        <ele>2221.364</ele>
        <time>2012-07-29T12:40:30Z</time>
      </trkpt>
      <trkpt lat="42.582146" lon="0.985637">
        <ele>2222.292</ele>
        <time>2012-07-29T12:41:11Z</time>
      </trkpt>
      <trkpt lat="42.582155" lon="0.986856">
        <ele>2215.032</ele>
        <time>2012-07-29T12:43:00Z</time>
      </trkpt>
      <trkpt lat="42.582543" lon="0.988143">
        <ele>2202.035</ele>
        <time>2012-07-29T12:46:07Z</time>
      </trkpt>
      <trkpt lat="42.582536" lon="0.988576">
        <ele>2202.057</ele>
        <time>2012-07-29T12:47:00Z</time>
      </trkpt>
      <trkpt lat="42.582645" lon="0.988406">
        <ele>2199.286</ele>
        <time>2012-07-29T12:52:29Z</time>
      </trkpt>
      <trkpt lat="42.582501" lon="0.987864">
        <ele>2197.760</ele>
        <time>2012-07-29T12:53:04Z</time>
      </trkpt>
      <trkpt lat="42.582705" lon="0.987953">
        <ele>2191.926</ele>
        <time>2012-07-29T12:53:24Z</time>
      </trkpt>
      <trkpt lat="42.582720" lon="0.987855">
        <ele>2191.007</ele>
        <time>2012-07-29T12:53:37Z</time>
      </trkpt>
      <trkpt lat="42.582579" lon="0.986576">
        <ele>2177.551</ele>
        <time>2012-07-29T12:56:57Z</time>
      </trkpt>
      <trkpt lat="42.582825" lon="0.986416">
        <ele>2177.042</ele>
        <time>2012-07-29T12:57:38Z</time>
      </trkpt>
      <trkpt lat="42.584422" lon="0.986810">
        <ele>2165.098</ele>
        <time>2012-07-29T13:02:54Z</time>
      </trkpt>
      <trkpt lat="42.584492" lon="0.986932">
        <ele>2166.526</ele>
        <time>2012-07-29T13:03:29Z</time>
      </trkpt>
      <trkpt lat="42.584568" lon="0.986807">
        <ele>2165.516</ele>
        <time>2012-07-29T13:05:19Z</time>
      </trkpt>
      <trkpt lat="42.585353" lon="0.986692">
        <ele>2171.359</ele>
        <time>2012-07-29T13:07:16Z</time>
      </trkpt>
      <trkpt lat="42.585892" lon="0.987540">
        <ele>2172.251</ele>
        <time>2012-07-29T13:09:36Z</time>
      </trkpt>
      <trkpt lat="42.586564" lon="0.988113">
        <ele>2158.812</ele>
        <time>2012-07-29T13:12:20Z</time>
      </trkpt>
      <trkpt lat="42.586796" lon="0.987976">
        <ele>2161.232</ele>
        <time>2012-07-29T13:12:40Z</time>
      </trkpt>
      <trkpt lat="42.586773" lon="0.987806">
        <ele>2165.005</ele>
        <time>2012-07-29T13:13:07Z</time>
      </trkpt>
      <trkpt lat="42.587556" lon="0.986757">
        <ele>2171.307</ele>
        <time>2012-07-29T13:16:51Z</time>
      </trkpt>
      <trkpt lat="42.588106" lon="0.986543">
        <ele>2170.354</ele>
        <time>2012-07-29T13:17:33Z</time>
      </trkpt>
      <trkpt lat="42.588223" lon="0.986360">
        <ele>2170.885</ele>
        <time>2012-07-29T13:17:51Z</time>
      </trkpt>
      <trkpt lat="42.588619" lon="0.986428">
        <ele>2170.391</ele>
        <time>2012-07-29T13:18:16Z</time>
      </trkpt>
      <trkpt lat="42.588780" lon="0.986865">
        <ele>2172.299</ele>
        <time>2012-07-29T13:18:47Z</time>
      </trkpt>
      <trkpt lat="42.588915" lon="0.986883">
        <ele>2171.399</ele>
        <time>2012-07-29T13:19:00Z</time>
      </trkpt>
      <trkpt lat="42.590059" lon="0.986387">
        <ele>2174.652</ele>
        <time>2012-07-29T13:21:34Z</time>
      </trkpt>
      <trkpt lat="42.590267" lon="0.986042">
        <ele>2183.824</ele>
        <time>2012-07-29T13:22:38Z</time>
      </trkpt>
      <trkpt lat="42.590554" lon="0.986127">
        <ele>2183.311</ele>
        <time>2012-07-29T13:24:21Z</time>
      </trkpt>
      <trkpt lat="42.590689" lon="0.984931">
        <ele>2198.721</ele>
        <time>2012-07-29T13:27:17Z</time>
      </trkpt>
      <trkpt lat="42.591164" lon="0.984391">
        <ele>2215.003</ele>
        <time>2012-07-29T13:29:26Z</time>
      </trkpt>
      <trkpt lat="42.591535" lon="0.983659">
        <ele>2223.207</ele>
        <time>2012-07-29T13:33:47Z</time>
      </trkpt>
      <trkpt lat="42.591667" lon="0.982989">
        <ele>2228.594</ele>
        <time>2012-07-29T13:35:34Z</time>
      </trkpt>
      <trkpt lat="42.591889" lon="0.982703">
        <ele>2233.855</ele>
        <time>2012-07-29T13:37:03Z</time>
      </trkpt>
      <trkpt lat="42.591878" lon="0.983051">
        <ele>2240.011</ele>
        <time>2012-07-29T13:38:08Z</time>
      </trkpt>
      <trkpt lat="42.592031" lon="0.983086">
        <ele>2243.929</ele>
        <time>2012-07-29T13:38:39Z</time>
      </trkpt>
      <trkpt lat="42.591924" lon="0.983173">
        <ele>2243.979</ele>
        <time>2012-07-29T13:39:33Z</time>
      </trkpt>
      <trkpt lat="42.592392" lon="0.983090">
        <ele>2241.542</ele>
        <time>2012-07-29T13:42:19Z</time>
      </trkpt>
      <trkpt lat="42.592469" lon="0.982874">
        <ele>2238.624</ele>
        <time>2012-07-29T13:42:42Z</time>
      </trkpt>
      <trkpt lat="42.593186" lon="0.982397">
        <ele>2236.246</ele>
        <time>2012-07-29T13:44:33Z</time>
      </trkpt>
      <trkpt lat="42.594061" lon="0.982094">
        <ele>2223.788</ele>
        <time>2012-07-29T13:46:34Z</time>
      </trkpt>
      <trkpt lat="42.594903" lon="0.982894">
        <ele>2239.116</ele>
        <time>2012-07-29T13:48:57Z</time>
      </trkpt>
      <trkpt lat="42.594899" lon="0.983450">
        <ele>2242.907</ele>
        <time>2012-07-29T13:49:41Z</time>
      </trkpt>
      <trkpt lat="42.595477" lon="0.983404">
        <ele>2254.097</ele>
        <time>2012-07-29T13:50:52Z</time>
      </trkpt>
      <trkpt lat="42.596312" lon="0.982207">
        <ele>2286.638</ele>
        <time>2012-07-29T13:54:06Z</time>
      </trkpt>
      <trkpt lat="42.596590" lon="0.981431">
        <ele>2301.194</ele>
        <time>2012-07-29T13:56:06Z</time>
      </trkpt>
      <trkpt lat="42.596646" lon="0.981723">
        <ele>2305.942</ele>
        <time>2012-07-29T13:56:40Z</time>
      </trkpt>
      <trkpt lat="42.596469" lon="0.981993">
        <ele>2309.712</ele>
        <time>2012-07-29T13:58:03Z</time>
      </trkpt>
      <trkpt lat="42.596708" lon="0.982402">
        <ele>2317.465</ele>
        <time>2012-07-29T13:58:49Z</time>
      </trkpt>
      <trkpt lat="42.596752" lon="0.983188">
        <ele>2327.577</ele>
        <time>2012-07-29T13:59:58Z</time>
      </trkpt>
      <trkpt lat="42.596358" lon="0.984541">
        <ele>2344.884</ele>
        <time>2012-07-29T14:02:16Z</time>
      </trkpt>
      <trkpt lat="42.596616" lon="0.984818">
        <ele>2350.607</ele>
        <time>2012-07-29T14:03:14Z</time>
      </trkpt>
      <trkpt lat="42.596818" lon="0.985094">
        <ele>2361.518</ele>
        <time>2018-09-06T07:17:12Z</time>
      </trkpt>
      <trkpt lat="42.596710" lon="0.984629">
        <ele>2363.798</ele>
        <time>2018-09-06T07:17:46Z</time>
      </trkpt>
      <trkpt lat="42.596512" lon="0.984820">
        <ele>2364.817</ele>
        <time>2018-09-06T07:18:12Z</time>
      </trkpt>
      <trkpt lat="42.596333" lon="0.984648">
        <ele>2360.908</ele>
        <time>2018-09-06T07:19:06Z</time>
      </trkpt>
      <trkpt lat="42.596664" lon="0.983720">
        <ele>2344.763</ele>
        <time>2018-09-06T07:20:33Z</time>
      </trkpt>
      <trkpt lat="42.596781" lon="0.982461">
        <ele>2336.239</ele>
        <time>2018-09-06T07:22:33Z</time>
      </trkpt>
      <trkpt lat="42.596606" lon="0.981302">
        <ele>2329.617</ele>
        <time>2018-09-06T07:24:13Z</time>
      </trkpt>
      <trkpt lat="42.596306" lon="0.981209">
        <ele>2326.061</ele>
        <time>2018-09-06T07:25:28Z</time>
      </trkpt>
      <trkpt lat="42.595929" lon="0.980630">
        <ele>2323.990</ele>
        <time>2018-09-06T07:26:56Z</time>
      </trkpt>
      <trkpt lat="42.595284" lon="0.980418">
        <ele>2325.482</ele>
        <time>2018-09-06T07:28:29Z</time>
      </trkpt>
      <trkpt lat="42.594996" lon="0.979374">
        <ele>2336.959</ele>
        <time>2018-09-06T07:30:52Z</time>
      </trkpt>
      <trkpt lat="42.594587" lon="0.978999">
        <ele>2323.485</ele>
        <time>2018-09-06T07:32:45Z</time>
      </trkpt>
      <trkpt lat="42.594299" lon="0.978934">
        <ele>2319.226</ele>
        <time>2018-09-06T07:34:00Z</time>
      </trkpt>
      <trkpt lat="42.593836" lon="0.979483">
        <ele>2301.647</ele>
        <time>2018-09-06T07:40:22Z</time>
      </trkpt>
      <trkpt lat="42.593656" lon="0.979512">
        <ele>2297.511</ele>
        <time>2018-09-06T07:40:54Z</time>
      </trkpt>
      <trkpt lat="42.593421" lon="0.980345">
        <ele>2286.708</ele>
        <time>2018-09-06T07:42:20Z</time>
      </trkpt>
      <trkpt lat="42.593141" lon="0.980674">
        <ele>2278.074</ele>
        <time>2018-09-06T07:43:11Z</time>
      </trkpt>
      <trkpt lat="42.593035" lon="0.980077">
        <ele>2269.840</ele>
        <time>2018-09-06T07:44:19Z</time>
      </trkpt>
      <trkpt lat="42.593312" lon="0.978964">
        <ele>2255.028</ele>
        <time>2018-09-06T07:47:06Z</time>
      </trkpt>
      <trkpt lat="42.592768" lon="0.979969">
        <ele>2241.982</ele>
        <time>2018-09-06T07:50:09Z</time>
      </trkpt>
      <trkpt lat="42.592424" lon="0.980205">
        <ele>2236.931</ele>
        <time>2018-09-06T07:51:07Z</time>
      </trkpt>
      <trkpt lat="42.592296" lon="0.980645">
        <ele>2235.713</ele>
        <time>2018-09-06T07:52:12Z</time>
      </trkpt>
      <trkpt lat="42.592155" lon="0.980711">
        <ele>2236.610</ele>
        <time>2018-09-06T07:52:29Z</time>
      </trkpt>
      <trkpt lat="42.591963" lon="0.981329">
        <ele>2239.566</ele>
        <time>2018-09-06T07:53:57Z</time>
      </trkpt>
      <trkpt lat="42.591796" lon="0.982986">
        <ele>2241.738</ele>
        <time>2018-09-06T07:57:22Z</time>
      </trkpt>
      <trkpt lat="42.591574" lon="0.983056">
        <ele>2239.670</ele>
        <time>2018-09-06T07:57:56Z</time>
      </trkpt>
      <trkpt lat="42.591152" lon="0.984416">
        <ele>2231.217</ele>
        <time>2018-09-06T08:00:44Z</time>
      </trkpt>
      <trkpt lat="42.590717" lon="0.984895">
        <ele>2215.108</ele>
        <time>2018-09-06T08:03:15Z</time>
      </trkpt>
      <trkpt lat="42.590462" lon="0.986151">
        <ele>2201.835</ele>
        <time>2018-09-06T08:05:59Z</time>
      </trkpt>
      <trkpt lat="42.589056" lon="0.986906">
        <ele>2182.681</ele>
        <time>2018-09-06T08:10:03Z</time>
      </trkpt>
      <trkpt lat="42.588709" lon="0.986861">
        <ele>2178.389</ele>
        <time>2018-09-06T08:11:46Z</time>
      </trkpt>
      <trkpt lat="42.588560" lon="0.986417">
        <ele>2178.063</ele>
        <time>2018-09-06T08:12:50Z</time>
      </trkpt>
      <trkpt lat="42.588312" lon="0.986366">
        <ele>2178.482</ele>
        <time>2018-09-06T08:13:12Z</time>
      </trkpt>
      <trkpt lat="42.587478" lon="0.986976">
        <ele>2178.334</ele>
        <time>2018-09-06T08:14:38Z</time>
      </trkpt>
      <trkpt lat="42.587046" lon="0.987642">
        <ele>2171.631</ele>
        <time>2018-09-06T08:16:31Z</time>
      </trkpt>
      <trkpt lat="42.586490" lon="0.987761">
        <ele>2174.067</ele>
        <time>2018-09-06T08:17:21Z</time>
      </trkpt>
      <trkpt lat="42.586990" lon="0.987657">
        <ele>2170.974</ele>
        <time>2018-09-06T08:26:33Z</time>
      </trkpt>
      <trkpt lat="42.586419" lon="0.988039">
        <ele>2163.956</ele>
        <time>2018-09-06T08:28:13Z</time>
      </trkpt>
      <trkpt lat="42.585975" lon="0.987475">
        <ele>2165.821</ele>
        <time>2018-09-06T08:30:23Z</time>
      </trkpt>
      <trkpt lat="42.585825" lon="0.987471">
        <ele>2168.208</ele>
        <time>2018-09-06T08:30:42Z</time>
      </trkpt>
      <trkpt lat="42.585369" lon="0.986734">
        <ele>2171.319</ele>
        <time>2018-09-06T08:32:17Z</time>
      </trkpt>
      <trkpt lat="42.584710" lon="0.986897">
        <ele>2167.875</ele>
        <time>2018-09-06T08:34:05Z</time>
      </trkpt>
      <trkpt lat="42.583406" lon="0.986472">
        <ele>2165.133</ele>
        <time>2018-09-06T08:36:56Z</time>
      </trkpt>
      <trkpt lat="42.582699" lon="0.986494">
        <ele>2168.957</ele>
        <time>2018-09-06T08:39:03Z</time>
      </trkpt>
      <trkpt lat="42.582839" lon="0.987405">
        <ele>2165.696</ele>
        <time>2018-09-06T08:40:55Z</time>
      </trkpt>
      <trkpt lat="42.583295" lon="0.988375">
        <ele>2148.688</ele>
        <time>2018-09-06T08:42:56Z</time>
      </trkpt>
      <trkpt lat="42.583331" lon="0.989599">
        <ele>2126.615</ele>
        <time>2018-09-06T08:45:41Z</time>
      </trkpt>
      <trkpt lat="42.583265" lon="0.989778">
        <ele>2127.471</ele>
        <time>2018-09-06T08:45:58Z</time>
      </trkpt>
      <trkpt lat="42.582977" lon="0.989797">
        <ele>2123.536</ele>
        <time>2018-09-06T08:46:38Z</time>
      </trkpt>
      <trkpt lat="42.582286" lon="0.990225">
        <ele>2105.917</ele>
        <time>2018-09-06T08:48:23Z</time>
      </trkpt>
      <trkpt lat="42.582422" lon="0.990601">
        <ele>2097.218</ele>
        <time>2018-09-06T08:49:17Z</time>
      </trkpt>
      <trkpt lat="42.582199" lon="0.990720">
        <ele>2089.908</ele>
        <time>2018-09-06T08:49:46Z</time>
      </trkpt>
      <trkpt lat="42.581964" lon="0.991770">
        <ele>2066.995</ele>
        <time>2018-09-06T08:51:50Z</time>
      </trkpt>
      <trkpt lat="42.581592" lon="0.992348">
        <ele>2064.011</ele>
        <time>2018-09-06T08:52:37Z</time>
      </trkpt>
      <trkpt lat="42.581456" lon="0.993765">
        <ele>2048.559</ele>
        <time>2018-09-06T08:54:46Z</time>
      </trkpt>
      <trkpt lat="42.581227" lon="0.993812">
        <ele>2046.013</ele>
        <time>2018-09-06T08:55:14Z</time>
      </trkpt>
      <trkpt lat="42.580782" lon="0.993531">
        <ele>2037.972</ele>
        <time>2018-09-06T08:57:29Z</time>
      </trkpt>
      <trkpt lat="42.580334" lon="0.993804">
        <ele>2034.354</ele>
        <time>2018-09-06T08:58:14Z</time>
      </trkpt>
      <trkpt lat="42.580018" lon="0.994952">
        <ele>2012.741</ele>
        <time>2018-09-06T09:00:40Z</time>
      </trkpt>
      <trkpt lat="42.579953" lon="0.995884">
        <ele>2001.417</ele>
        <time>2018-09-06T09:01:45Z</time>
      </trkpt>
      <trkpt lat="42.579606" lon="0.996309">
        <ele>1992.539</ele>
        <time>2018-09-06T09:03:04Z</time>
      </trkpt>
      <trkpt lat="42.580017" lon="0.997165">
        <ele>1979.301</ele>
        <time>2018-09-06T09:04:14Z</time>
      </trkpt>
      <trkpt lat="42.580049" lon="0.998099">
        <ele>1972.821</ele>
        <time>2018-09-06T09:05:25Z</time>
      </trkpt>
      <trkpt lat="42.579876" lon="0.998611">
        <ele>1973.208</ele>
        <time>2018-09-06T09:06:04Z</time>
      </trkpt>
      <trkpt lat="42.579965" lon="0.998889">
        <ele>1968.495</ele>
        <time>2018-09-06T09:06:25Z</time>
      </trkpt>
      <trkpt lat="42.579866" lon="0.998874">
        <ele>1967.961</ele>
        <time>2018-09-06T09:06:39Z</time>
      </trkpt>
      <trkpt lat="42.580032" lon="0.999202">
        <ele>1961.029</ele>
        <time>2018-09-06T09:07:44Z</time>
      </trkpt>
      <trkpt lat="42.580162" lon="1.000246">
        <ele>1953.083</ele>
        <time>2018-09-06T09:09:25Z</time>
      </trkpt>
      <trkpt lat="42.580078" lon="1.000405">
        <ele>1952.252</ele>
        <time>2018-09-06T09:09:40Z</time>
      </trkpt>
      <trkpt lat="42.580258" lon="1.000673">
        <ele>1950.724</ele>
        <time>2018-09-06T09:10:01Z</time>
      </trkpt>
      <trkpt lat="42.580366" lon="1.001841">
        <ele>1938.071</ele>
        <time>2018-09-06T09:11:26Z</time>
      </trkpt>
      <trkpt lat="42.579875" lon="1.004300">
        <ele>1925.587</ele>
        <time>2018-09-06T09:14:33Z</time>
      </trkpt>
      <trkpt lat="42.580142" lon="1.005767">
        <ele>1950.393</ele>
        <time>2018-09-06T09:17:23Z</time>
      </trkpt>
      <trkpt lat="42.580109" lon="1.006038">
        <ele>1951.665</ele>
        <time>2018-09-06T09:17:44Z</time>
      </trkpt>
      <trkpt lat="42.579424" lon="1.006927">
        <ele>1950.621</ele>
        <time>2018-09-06T09:19:40Z</time>
      </trkpt>
      <trkpt lat="42.579224" lon="1.006819">
        <ele>1949.008</ele>
        <time>2018-09-06T09:19:59Z</time>
      </trkpt>
      <trkpt lat="42.579199" lon="1.006623">
        <ele>1946.861</ele>
        <time>2018-09-06T09:20:11Z</time>
      </trkpt>
      <trkpt lat="42.578628" lon="1.006443">
        <ele>1936.147</ele>
        <time>2018-09-06T09:21:07Z</time>
      </trkpt>
      <trkpt lat="42.579079" lon="1.007193">
        <ele>1921.875</ele>
        <time>2018-09-06T09:22:24Z</time>
      </trkpt>
      <trkpt lat="42.579089" lon="1.007550">
        <ele>1920.619</ele>
        <time>2018-09-06T09:22:43Z</time>
      </trkpt>
      <trkpt lat="42.578793" lon="1.007449">
        <ele>1918.958</ele>
        <time>2018-09-06T09:23:08Z</time>
      </trkpt>
      <trkpt lat="42.578738" lon="1.007621">
        <ele>1915.860</ele>
        <time>2018-09-06T09:23:21Z</time>
      </trkpt>
      <trkpt lat="42.579168" lon="1.008020">
        <ele>1903.617</ele>
        <time>2018-09-06T09:24:26Z</time>
      </trkpt>
      <trkpt lat="42.578988" lon="1.008245">
        <ele>1902.693</ele>
        <time>2018-09-06T09:24:48Z</time>
      </trkpt>
      <trkpt lat="42.578803" lon="1.009210">
        <ele>1888.684</ele>
        <time>2018-09-06T09:27:10Z</time>
      </trkpt>
      <trkpt lat="42.578784" lon="1.008998">
        <ele>1888.407</ele>
        <time>2018-09-06T09:27:16Z</time>
      </trkpt>
      <trkpt lat="42.578826" lon="1.009166">
        <ele>1887.017</ele>
        <time>2018-09-06T09:27:29Z</time>
      </trkpt>
      <trkpt lat="42.578966" lon="1.009094">
        <ele>1881.108</ele>
        <time>2018-09-06T09:29:49Z</time>
      </trkpt>
      <trkpt lat="42.578849" lon="1.008411">
        <ele>1883.890</ele>
        <time>2018-09-06T09:30:02Z</time>
      </trkpt>
      <trkpt lat="42.578856" lon="1.009209">
        <ele>1877.846</ele>
        <time>2018-09-06T09:30:20Z</time>
      </trkpt>
      <trkpt lat="42.578838" lon="1.009085">
        <ele>1876.824</ele>
        <time>2018-09-06T09:30:32Z</time>
      </trkpt>
      <trkpt lat="42.578756" lon="1.009268">
        <ele>1894.418</ele>
        <time>2018-09-06T09:31:27Z</time>
      </trkpt>
      <trkpt lat="42.578879" lon="1.008444">
        <ele>1899.617</ele>
        <time>2018-09-06T09:46:20Z</time>
      </trkpt>
      <trkpt lat="42.579142" lon="1.007981">
        <ele>1905.769</ele>
        <time>2018-09-06T09:47:07Z</time>
      </trkpt>
      <trkpt lat="42.578664" lon="1.007631">
        <ele>1909.736</ele>
        <time>2018-09-06T09:48:40Z</time>
      </trkpt>
      <trkpt lat="42.578762" lon="1.007500">
        <ele>1912.632</ele>
        <time>2018-09-06T09:48:55Z</time>
      </trkpt>
      <trkpt lat="42.579082" lon="1.007509">
        <ele>1916.297</ele>
        <time>2018-09-06T09:49:26Z</time>
      </trkpt>
      <trkpt lat="42.578946" lon="1.006871">
        <ele>1923.123</ele>
        <time>2018-09-06T09:50:23Z</time>
      </trkpt>
      <trkpt lat="42.578315" lon="1.006806">
        <ele>1926.525</ele>
        <time>2018-09-06T09:51:30Z</time>
      </trkpt>
      <trkpt lat="42.578190" lon="1.006686">
        <ele>1928.208</ele>
        <time>2018-09-06T09:51:59Z</time>
      </trkpt>
      <trkpt lat="42.578230" lon="1.006444">
        <ele>1931.971</ele>
        <time>2018-09-06T09:52:27Z</time>
      </trkpt>
      <trkpt lat="42.577997" lon="1.006304">
        <ele>1931.747</ele>
        <time>2018-09-06T09:53:04Z</time>
      </trkpt>
      <trkpt lat="42.577630" lon="1.005687">
        <ele>1938.075</ele>
        <time>2018-09-06T09:54:33Z</time>
      </trkpt>
      <trkpt lat="42.576769" lon="1.005475">
        <ele>1957.449</ele>
        <time>2018-09-06T09:57:17Z</time>
      </trkpt>
      <trkpt lat="42.575882" lon="1.005006">
        <ele>1968.868</ele>
        <time>2018-09-06T09:59:39Z</time>
      </trkpt>
      <trkpt lat="42.575657" lon="1.005065">
        <ele>1969.220</ele>
        <time>2018-09-06T09:59:53Z</time>
      </trkpt>
      <trkpt lat="42.575346" lon="1.004710">
        <ele>1969.597</ele>
        <time>2018-09-06T10:01:37Z</time>
      </trkpt>
      <trkpt lat="42.575263" lon="1.004341">
        <ele>1981.293</ele>
        <time>2018-09-06T10:02:37Z</time>
      </trkpt>
      <trkpt lat="42.574804" lon="1.004466">
        <ele>1992.062</ele>
        <time>2018-09-06T10:03:47Z</time>
      </trkpt>
      <trkpt lat="42.574314" lon="1.004028">
        <ele>2005.083</ele>
        <time>2018-09-06T10:05:17Z</time>
      </trkpt>
      <trkpt lat="42.572853" lon="1.003498">
        <ele>2020.911</ele>
        <time>2018-09-06T10:08:48Z</time>
      </trkpt>
      <trkpt lat="42.572078" lon="1.003402">
        <ele>2027.608</ele>
        <time>2018-09-06T10:10:34Z</time>
      </trkpt>
      <trkpt lat="42.571245" lon="1.003603">
        <ele>2029.048</ele>
        <time>2018-09-06T10:12:04Z</time>
      </trkpt>
      <trkpt lat="42.570745" lon="1.004008">
        <ele>2031.784</ele>
        <time>2018-09-06T10:13:13Z</time>
      </trkpt>
      <trkpt lat="42.569939" lon="1.003825">
        <ele>2036.082</ele>
        <time>2018-09-06T10:14:36Z</time>
      </trkpt>
      <trkpt lat="42.569481" lon="1.003876">
        <ele>2037.316</ele>
        <time>2018-09-06T10:15:50Z</time>
      </trkpt>
      <trkpt lat="42.569093" lon="1.004188">
        <ele>2042.245</ele>
        <time>2018-09-06T10:17:08Z</time>
      </trkpt>
      <trkpt lat="42.568724" lon="1.004176">
        <ele>2046.227</ele>
        <time>2018-09-06T10:18:07Z</time>
      </trkpt>
      <trkpt lat="42.568381" lon="1.003838">
        <ele>2052.864</ele>
        <time>2018-09-06T10:19:25Z</time>
      </trkpt>
      <trkpt lat="42.568459" lon="1.003102">
        <ele>2066.950</ele>
        <time>2018-09-06T10:21:14Z</time>
      </trkpt>
      <trkpt lat="42.567978" lon="1.002929">
        <ele>2071.084</ele>
        <time>2018-09-06T10:23:10Z</time>
      </trkpt>
      <trkpt lat="42.567577" lon="1.003079">
        <ele>2080.907</ele>
        <time>2018-09-06T10:24:45Z</time>
      </trkpt>
      <trkpt lat="42.567206" lon="1.002704">
        <ele>2092.117</ele>
        <time>2018-09-06T10:26:22Z</time>
      </trkpt>
      <trkpt lat="42.565769" lon="1.003369">
        <ele>2102.708</ele>
        <time>2018-09-06T10:31:02Z</time>
      </trkpt>
      <trkpt lat="42.564855" lon="1.003509">
        <ele>2109.110</ele>
        <time>2018-09-06T10:33:07Z</time>
      </trkpt>
      <trkpt lat="42.564356" lon="1.003783">
        <ele>2116.126</ele>
        <time>2018-09-06T10:34:47Z</time>
      </trkpt>
      <trkpt lat="42.563759" lon="1.003198">
        <ele>2131.024</ele>
        <time>2018-09-06T10:37:24Z</time>
      </trkpt>
      <trkpt lat="42.563143" lon="1.003374">
        <ele>2135.038</ele>
        <time>2018-09-06T10:38:46Z</time>
      </trkpt>
      <trkpt lat="42.562245" lon="1.002777">
        <ele>2143.497</ele>
        <time>2018-09-06T10:41:18Z</time>
      </trkpt>
      <trkpt lat="42.561007" lon="1.003146">
        <ele>2161.039</ele>
        <time>2018-09-06T10:45:45Z</time>
      </trkpt>
      <trkpt lat="42.560177" lon="1.002906">
        <ele>2166.286</ele>
        <time>2018-09-06T10:47:50Z</time>
      </trkpt>
      <trkpt lat="42.559645" lon="1.002522">
        <ele>2171.592</ele>
        <time>2018-09-06T10:50:55Z</time>
      </trkpt>
      <trkpt lat="42.559231" lon="1.002409">
        <ele>2171.048</ele>
        <time>2018-09-06T10:51:56Z</time>
      </trkpt>
      <trkpt lat="42.558364" lon="1.002717">
        <ele>2172.161</ele>
        <time>2018-09-06T10:54:59Z</time>
      </trkpt>
      <trkpt lat="42.557526" lon="1.002827">
        <ele>2175.517</ele>
        <time>2018-09-06T10:57:00Z</time>
      </trkpt>
      <trkpt lat="42.556538" lon="1.002335">
        <ele>2188.308</ele>
        <time>2018-09-06T11:00:44Z</time>
      </trkpt>
      <trkpt lat="42.556371" lon="1.002493">
        <ele>2187.816</ele>
        <time>2018-09-06T11:02:25Z</time>
      </trkpt>
      <trkpt lat="42.555507" lon="1.002643">
        <ele>2190.332</ele>
        <time>2018-09-06T11:04:09Z</time>
      </trkpt>
      <trkpt lat="42.553033" lon="1.003883">
        <ele>2223.080</ele>
        <time>2018-09-06T11:12:36Z</time>
      </trkpt>
      <trkpt lat="42.552325" lon="1.004124">
        <ele>2244.624</ele>
        <time>2018-09-06T11:15:59Z</time>
      </trkpt>
      <trkpt lat="42.551532" lon="1.004178">
        <ele>2259.133</ele>
        <time>2018-09-06T11:18:06Z</time>
      </trkpt>
      <trkpt lat="42.550884" lon="1.005288">
        <ele>2282.535</ele>
        <time>2018-09-06T11:21:52Z</time>
      </trkpt>
      <trkpt lat="42.550834" lon="1.005692">
        <ele>2301.232</ele>
        <time>2018-09-06T11:24:11Z</time>
      </trkpt>
      <trkpt lat="42.549742" lon="1.006104">
        <ele>2327.798</ele>
        <time>2018-09-06T11:30:40Z</time>
      </trkpt>
      <trkpt lat="42.548444" lon="1.007280">
        <ele>2388.983</ele>
        <time>2018-09-06T11:39:31Z</time>
      </trkpt>
      <trkpt lat="42.547647" lon="1.007417">
        <ele>2416.925</ele>
        <time>2018-09-06T11:44:07Z</time>
      </trkpt>
      <trkpt lat="42.547830" lon="1.007725">
        <ele>2428.717</ele>
        <time>2018-09-06T11:56:33Z</time>
      </trkpt>
      <trkpt lat="42.547526" lon="1.008247">
        <ele>2442.808</ele>
        <time>2018-09-06T11:59:06Z</time>
      </trkpt>
      <trkpt lat="42.547697" lon="1.008347">
        <ele>2449.830</ele>
        <time>2018-09-06T12:00:11Z</time>
      </trkpt>
      <trkpt lat="42.547542" lon="1.008794">
        <ele>2465.466</ele>
        <time>2018-09-06T12:02:44Z</time>
      </trkpt>
      <trkpt lat="42.547555" lon="1.009621">
        <ele>2498.334</ele>
        <time>2018-09-06T12:06:45Z</time>
      </trkpt>
      <trkpt lat="42.547284" lon="1.010323">
        <ele>2496.738</ele>
        <time>2018-09-06T12:09:16Z</time>
      </trkpt>
      <trkpt lat="42.547100" lon="1.010478">
        <ele>2499.917</ele>
        <time>2018-09-06T12:10:15Z</time>
      </trkpt>
      <trkpt lat="42.547070" lon="1.011086">
        <ele>2507.259</ele>
        <time>2018-09-06T12:12:04Z</time>
      </trkpt>
      <trkpt lat="42.546806" lon="1.011532">
        <ele>2512.616</ele>
        <time>2018-09-06T12:14:50Z</time>
      </trkpt>
      <trkpt lat="42.546919" lon="1.012593">
        <ele>2523.142</ele>
        <time>2018-09-06T12:19:41Z</time>
      </trkpt>
      <trkpt lat="42.546724" lon="1.012694">
        <ele>2525.977</ele>
        <time>2018-09-06T12:20:24Z</time>
      </trkpt>
      <trkpt lat="42.546105" lon="1.014301">
        <ele>2552.461</ele>
        <time>2018-09-06T12:25:17Z</time>
      </trkpt>
      <trkpt lat="42.545815" lon="1.014507">
        <ele>2559.727</ele>
        <time>2018-09-06T12:26:34Z</time>
      </trkpt>
      <trkpt lat="42.545183" lon="1.015795">
        <ele>2583.108</ele>
        <time>2018-09-06T12:34:59Z</time>
      </trkpt>
      <trkpt lat="42.544888" lon="1.015932">
        <ele>2602.869</ele>
        <time>2018-09-06T12:37:59Z</time>
      </trkpt>
      <trkpt lat="42.544830" lon="1.016214">
        <ele>2616.085</ele>
        <time>2018-09-06T12:40:10Z</time>
      </trkpt>
      <trkpt lat="42.544578" lon="1.016400">
        <ele>2636.483</ele>
        <time>2018-09-06T12:42:54Z</time>
      </trkpt>
      <trkpt lat="42.544280" lon="1.016297">
        <ele>2649.097</ele>
        <time>2018-09-06T12:46:57Z</time>
      </trkpt>
      <trkpt lat="42.544067" lon="1.016478">
        <ele>2665.556</ele>
        <time>2018-09-06T12:50:11Z</time>
      </trkpt>
      <trkpt lat="42.543776" lon="1.016419">
        <ele>2683.228</ele>
        <time>2018-09-06T12:54:33Z</time>
      </trkpt>
      <trkpt lat="42.543469" lon="1.016729">
        <ele>2713.075</ele>
        <time>2018-09-06T12:57:26Z</time>
      </trkpt>
      <trkpt lat="42.543782" lon="1.018173">
        <ele>2684.541</ele>
        <time>2018-09-06T13:06:05Z</time>
      </trkpt>
      <trkpt lat="42.544370" lon="1.018798">
        <ele>2671.612</ele>
        <time>2018-09-06T13:08:23Z</time>
      </trkpt>
      <trkpt lat="42.544827" lon="1.019623">
        <ele>2655.332</ele>
        <time>2018-09-06T13:12:50Z</time>
      </trkpt>
      <trkpt lat="42.544800" lon="1.020729">
        <ele>2619.805</ele>
        <time>2018-09-06T13:20:23Z</time>
      </trkpt>
      <trkpt lat="42.545052" lon="1.022294">
        <ele>2603.608</ele>
        <time>2018-09-06T13:23:21Z</time>
      </trkpt>
      <trkpt lat="42.544544" lon="1.023881">
        <ele>2595.093</ele>
        <time>2018-09-06T13:30:05Z</time>
      </trkpt>
      <trkpt lat="42.543946" lon="1.025032">
        <ele>2577.269</ele>
        <time>2018-09-06T13:36:29Z</time>
      </trkpt>
      <trkpt lat="42.543794" lon="1.025729">
        <ele>2560.327</ele>
        <time>2018-09-06T13:39:13Z</time>
      </trkpt>
      <trkpt lat="42.543471" lon="1.026354">
        <ele>2538.211</ele>
        <time>2018-09-06T13:42:57Z</time>
      </trkpt>
      <trkpt lat="42.543277" lon="1.027716">
        <ele>2511.980</ele>
        <time>2018-09-06T13:47:35Z</time>
      </trkpt>
      <trkpt lat="42.543468" lon="1.027981">
        <ele>2509.412</ele>
        <time>2018-09-06T13:48:37Z</time>
      </trkpt>
      <trkpt lat="42.543929" lon="1.028116">
        <ele>2508.279</ele>
        <time>2018-09-06T13:51:59Z</time>
      </trkpt>
      <trkpt lat="42.544201" lon="1.028585">
        <ele>2499.635</ele>
        <time>2018-09-06T13:53:24Z</time>
      </trkpt>
      <trkpt lat="42.544399" lon="1.028576">
        <ele>2497.846</ele>
        <time>2018-09-06T13:55:18Z</time>
      </trkpt>
      <trkpt lat="42.544177" lon="1.028675">
        <ele>2498.888</ele>
        <time>2018-09-06T14:12:09Z</time>
      </trkpt>
      <trkpt lat="42.544790" lon="1.028805">
        <ele>2494.816</ele>
        <time>2018-09-06T14:16:24Z</time>
      </trkpt>
      <trkpt lat="42.545038" lon="1.028722">
        <ele>2500.408</ele>
        <time>2018-09-06T14:17:22Z</time>
      </trkpt>
      <trkpt lat="42.545620" lon="1.029968">
        <ele>2498.666</ele>
        <time>2018-09-06T14:20:00Z</time>
      </trkpt>
      <trkpt lat="42.545505" lon="1.031354">
        <ele>2474.652</ele>
        <time>2018-09-06T14:23:12Z</time>
      </trkpt>
      <trkpt lat="42.545939" lon="1.032730">
        <ele>2463.950</ele>
        <time>2018-09-06T14:26:24Z</time>
      </trkpt>
      <trkpt lat="42.545430" lon="1.035747">
        <ele>2422.654</ele>
        <time>2018-09-06T14:33:23Z</time>
      </trkpt>
      <trkpt lat="42.545091" lon="1.035999">
        <ele>2410.783</ele>
        <time>2018-09-06T14:34:28Z</time>
      </trkpt>
      <trkpt lat="42.544911" lon="1.036855">
        <ele>2403.365</ele>
        <time>2018-09-06T14:37:15Z</time>
      </trkpt>
      <trkpt lat="42.544712" lon="1.037154">
        <ele>2399.392</ele>
        <time>2018-09-06T14:37:47Z</time>
      </trkpt>
      <trkpt lat="42.544739" lon="1.037471">
        <ele>2394.078</ele>
        <time>2018-09-06T14:38:31Z</time>
      </trkpt>
      <trkpt lat="42.545209" lon="1.038053">
        <ele>2397.327</ele>
        <time>2018-09-06T14:47:58Z</time>
      </trkpt>
      <trkpt lat="42.545350" lon="1.037946">
        <ele>2406.568</ele>
        <time>2018-09-06T14:48:57Z</time>
      </trkpt>
      <trkpt lat="42.545625" lon="1.038196">
        <ele>2405.214</ele>
        <time>2018-09-06T14:49:34Z</time>
      </trkpt>
      <trkpt lat="42.546189" lon="1.038895">
        <ele>2406.308</ele>
        <time>2018-09-06T14:52:18Z</time>
      </trkpt>
      <trkpt lat="42.546297" lon="1.038825">
        <ele>2401.264</ele>
        <time>2018-09-06T14:53:02Z</time>
      </trkpt>
      <trkpt lat="42.546988" lon="1.039267">
        <ele>2395.650</ele>
        <time>2018-09-06T14:55:05Z</time>
      </trkpt>
      <trkpt lat="42.546992" lon="1.039859">
        <ele>2396.498</ele>
        <time>2018-09-06T14:56:23Z</time>
      </trkpt>
      <trkpt lat="42.547216" lon="1.040104">
        <ele>2398.332</ele>
        <time>2018-09-06T14:57:22Z</time>
      </trkpt>
      <trkpt lat="42.548220" lon="1.040039">
        <ele>2388.181</ele>
        <time>2018-09-06T15:01:02Z</time>
      </trkpt>
      <trkpt lat="42.548622" lon="1.040328">
        <ele>2384.753</ele>
        <time>2018-09-06T15:02:36Z</time>
      </trkpt>
      <trkpt lat="42.548534" lon="1.041346">
        <ele>2381.070</ele>
        <time>2018-09-06T15:04:39Z</time>
      </trkpt>
      <trkpt lat="42.548244" lon="1.042272">
        <ele>2365.216</ele>
        <time>2018-09-06T15:06:40Z</time>
      </trkpt>
      <trkpt lat="42.548328" lon="1.043306">
        <ele>2343.112</ele>
        <time>2018-09-06T15:08:35Z</time>
      </trkpt>
      <trkpt lat="42.548166" lon="1.043337">
        <ele>2337.332</ele>
        <time>2018-09-06T15:09:11Z</time>
      </trkpt>
      <trkpt lat="42.548122" lon="1.043855">
        <ele>2326.805</ele>
        <time>2018-09-06T15:10:34Z</time>
      </trkpt>
      <trkpt lat="42.547541" lon="1.044441">
        <ele>2326.308</ele>
        <time>2018-09-06T15:12:48Z</time>
      </trkpt>
      <trkpt lat="42.547092" lon="1.046510">
        <ele>2315.983</ele>
        <time>2018-09-06T15:17:27Z</time>
      </trkpt>
      <trkpt lat="42.546344" lon="1.046528">
        <ele>2316.759</ele>
        <time>2018-09-06T15:18:43Z</time>
      </trkpt>
      <trkpt lat="42.545779" lon="1.045889">
        <ele>2316.077</ele>
        <time>2018-09-06T15:20:03Z</time>
      </trkpt>
      <trkpt lat="42.545276" lon="1.044600">
        <ele>2319.941</ele>
        <time>2018-09-06T15:22:02Z</time>
      </trkpt>
      <trkpt lat="42.545347" lon="1.044157">
        <ele>2319.530</ele>
        <time>2018-09-06T15:22:48Z</time>
      </trkpt>
      <trkpt lat="42.545696" lon="1.044042">
        <ele>2318.772</ele>
        <time>2018-09-06T15:23:54Z</time>
      </trkpt>
      <trkpt lat="42.545661" lon="1.044262">
        <ele>2320.059</ele>
        <time>2018-09-06T15:24:26Z</time>
      </trkpt>
      <trkpt lat="42.545738" lon="1.044103">
        <ele>2314.115</ele>
        <time>2018-09-06T15:25:00Z</time>
      </trkpt>
      <trkpt lat="42.545642" lon="1.044198">
        <ele>2313.726</ele>
        <time>2018-09-06T15:25:07Z</time>
      </trkpt>
      <trkpt lat="42.545636" lon="1.044032">
        <ele>2313.847</ele>
        <time>2018-09-06T15:26:47Z</time>
      </trkpt>
      <trkpt lat="42.545686" lon="1.044135">
        <ele>2313.011</ele>
        <time>2018-09-06T15:27:36Z</time>
      </trkpt>
      <trkpt lat="42.545627" lon="1.044143">
        <ele>2314.979</ele>
        <time>2015-06-24T06:01:25Z</time>
      </trkpt>
      <trkpt lat="42.545462" lon="1.044036">
        <ele>2314.605</ele>
        <time>2015-06-24T06:02:37Z</time>
      </trkpt>
      <trkpt lat="42.545215" lon="1.044218">
        <ele>2316.825</ele>
        <time>2015-06-24T06:03:44Z</time>
      </trkpt>
      <trkpt lat="42.544177" lon="1.044213">
        <ele>2329.908</ele>
        <time>2015-06-24T06:06:34Z</time>
      </trkpt>
      <trkpt lat="42.543815" lon="1.043787">
        <ele>2341.058</ele>
        <time>2015-06-24T06:08:21Z</time>
      </trkpt>
      <trkpt lat="42.542929" lon="1.043480">
        <ele>2341.757</ele>
        <time>2015-06-24T06:10:53Z</time>
      </trkpt>
      <trkpt lat="42.543058" lon="1.043152">
        <ele>2342.827</ele>
        <time>2015-06-24T06:12:37Z</time>
      </trkpt>
      <trkpt lat="42.542919" lon="1.042064">
        <ele>2337.966</ele>
        <time>2015-06-24T06:17:45Z</time>
      </trkpt>
      <trkpt lat="42.542434" lon="1.041526">
        <ele>2333.050</ele>
        <time>2015-06-24T06:19:23Z</time>
      </trkpt>
      <trkpt lat="42.542581" lon="1.041042">
        <ele>2337.033</ele>
        <time>2015-06-24T06:20:51Z</time>
      </trkpt>
      <trkpt lat="42.542398" lon="1.041057">
        <ele>2335.444</ele>
        <time>2015-06-24T06:21:24Z</time>
      </trkpt>
      <trkpt lat="42.542249" lon="1.040394">
        <ele>2343.299</ele>
        <time>2015-06-24T06:22:33Z</time>
      </trkpt>
      <trkpt lat="42.542418" lon="1.039897">
        <ele>2373.143</ele>
        <time>2015-06-24T06:25:08Z</time>
      </trkpt>
      <trkpt lat="42.542695" lon="1.039773">
        <ele>2384.464</ele>
        <time>2015-06-24T06:26:04Z</time>
      </trkpt>
      <trkpt lat="42.542901" lon="1.039313">
        <ele>2407.510</ele>
        <time>2015-06-24T06:28:40Z</time>
      </trkpt>
      <trkpt lat="42.542349" lon="1.039168">
        <ele>2405.708</ele>
        <time>2015-06-24T06:32:39Z</time>
      </trkpt>
      <trkpt lat="42.542294" lon="1.038896">
        <ele>2415.815</ele>
        <time>2015-06-24T06:33:43Z</time>
      </trkpt>
      <trkpt lat="42.542138" lon="1.038903">
        <ele>2414.164</ele>
        <time>2015-06-24T06:34:30Z</time>
      </trkpt>
      <trkpt lat="42.541934" lon="1.038550">
        <ele>2426.394</ele>
        <time>2015-06-24T06:35:31Z</time>
      </trkpt>
      <trkpt lat="42.542237" lon="1.036398">
        <ele>2431.913</ele>
        <time>2015-06-24T06:40:07Z</time>
      </trkpt>
      <trkpt lat="42.541822" lon="1.036311">
        <ele>2442.067</ele>
        <time>2015-06-24T06:41:55Z</time>
      </trkpt>
      <trkpt lat="42.541206" lon="1.035933">
        <ele>2453.750</ele>
        <time>2015-06-24T06:45:37Z</time>
      </trkpt>
      <trkpt lat="42.541202" lon="1.035421">
        <ele>2449.941</ele>
        <time>2015-06-24T06:46:56Z</time>
      </trkpt>
      <trkpt lat="42.541401" lon="1.035202">
        <ele>2443.416</ele>
        <time>2015-06-24T06:48:30Z</time>
      </trkpt>
      <trkpt lat="42.541261" lon="1.034290">
        <ele>2429.356</ele>
        <time>2015-06-24T06:51:21Z</time>
      </trkpt>
      <trkpt lat="42.542013" lon="1.033046">
        <ele>2434.059</ele>
        <time>2015-06-24T06:58:05Z</time>
      </trkpt>
      <trkpt lat="42.541698" lon="1.032595">
        <ele>2438.014</ele>
        <time>2015-06-24T07:01:57Z</time>
      </trkpt>
      <trkpt lat="42.541838" lon="1.032343">
        <ele>2442.908</ele>
        <time>2015-06-24T07:02:31Z</time>
      </trkpt>
      <trkpt lat="42.541738" lon="1.031824">
        <ele>2451.226</ele>
        <time>2015-06-24T07:03:33Z</time>
      </trkpt>
      <trkpt lat="42.541453" lon="1.032065">
        <ele>2444.025</ele>
        <time>2015-06-24T07:06:06Z</time>
      </trkpt>
      <trkpt lat="42.541226" lon="1.031931">
        <ele>2443.315</ele>
        <time>2015-06-24T07:07:52Z</time>
      </trkpt>
      <trkpt lat="42.541005" lon="1.031307">
        <ele>2448.534</ele>
        <time>2015-06-24T07:09:40Z</time>
      </trkpt>
      <trkpt lat="42.540701" lon="1.030958">
        <ele>2456.188</ele>
        <time>2015-06-24T07:10:27Z</time>
      </trkpt>
      <trkpt lat="42.540492" lon="1.029974">
        <ele>2480.321</ele>
        <time>2015-06-24T07:17:13Z</time>
      </trkpt>
      <trkpt lat="42.539963" lon="1.029499">
        <ele>2498.642</ele>
        <time>2015-06-24T07:19:46Z</time>
      </trkpt>
      <trkpt lat="42.539944" lon="1.029262">
        <ele>2502.777</ele>
        <time>2015-06-24T07:20:44Z</time>
      </trkpt>
      <trkpt lat="42.539494" lon="1.028642">
        <ele>2511.112</ele>
        <time>2015-06-24T07:23:48Z</time>
      </trkpt>
      <trkpt lat="42.539077" lon="1.028121">
        <ele>2520.332</ele>
        <time>2015-06-24T07:26:52Z</time>
      </trkpt>
      <trkpt lat="42.538714" lon="1.027956">
        <ele>2521.205</ele>
        <time>2015-06-24T07:27:57Z</time>
      </trkpt>
      <trkpt lat="42.538605" lon="1.027675">
        <ele>2530.908</ele>
        <time>2015-06-24T07:28:53Z</time>
      </trkpt>
      <trkpt lat="42.538216" lon="1.027805">
        <ele>2527.712</ele>
        <time>2015-06-24T07:30:34Z</time>
      </trkpt>
      <trkpt lat="42.537370" lon="1.026854">
        <ele>2542.831</ele>
        <time>2015-06-24T07:34:11Z</time>
      </trkpt>
      <trkpt lat="42.536678" lon="1.026771">
        <ele>2536.561</ele>
        <time>2015-06-24T07:36:38Z</time>
      </trkpt>
      <trkpt lat="42.536253" lon="1.026540">
        <ele>2536.280</ele>
        <time>2015-06-24T07:38:20Z</time>
      </trkpt>
      <trkpt lat="42.536064" lon="1.026076">
        <ele>2547.724</ele>
        <time>2015-06-24T07:40:41Z</time>
      </trkpt>
      <trkpt lat="42.535671" lon="1.025634">
        <ele>2561.037</ele>
        <time>2015-06-24T07:42:21Z</time>
      </trkpt>
      <trkpt lat="42.535421" lon="1.025516">
        <ele>2562.398</ele>
        <time>2015-06-24T07:44:11Z</time>
      </trkpt>
      <trkpt lat="42.535220" lon="1.025732">
        <ele>2554.743</ele>
        <time>2015-06-24T07:45:50Z</time>
      </trkpt>
      <trkpt lat="42.535044" lon="1.025711">
        <ele>2554.068</ele>
        <time>2015-06-24T07:46:39Z</time>
      </trkpt>
      <trkpt lat="42.534770" lon="1.025289">
        <ele>2570.042</ele>
        <time>2015-06-24T07:48:57Z</time>
      </trkpt>
      <trkpt lat="42.533405" lon="1.025724">
        <ele>2547.426</ele>
        <time>2015-06-24T07:54:45Z</time>
      </trkpt>
      <trkpt lat="42.533079" lon="1.025251">
        <ele>2557.108</ele>
        <time>2015-06-24T07:56:45Z</time>
      </trkpt>
      <trkpt lat="42.532487" lon="1.024817">
        <ele>2563.797</ele>
        <time>2015-06-24T07:59:10Z</time>
      </trkpt>
      <trkpt lat="42.531836" lon="1.023911">
        <ele>2592.446</ele>
        <time>2015-06-24T08:03:25Z</time>
      </trkpt>
      <trkpt lat="42.531450" lon="1.023661">
        <ele>2594.856</ele>
        <time>2015-06-24T08:06:26Z</time>
      </trkpt>
      <trkpt lat="42.531028" lon="1.022848">
        <ele>2623.315</ele>
        <time>2015-06-24T08:13:35Z</time>
      </trkpt>
      <trkpt lat="42.530694" lon="1.022556">
        <ele>2632.519</ele>
        <time>2015-06-24T08:15:38Z</time>
      </trkpt>
      <trkpt lat="42.530656" lon="1.022231">
        <ele>2642.992</ele>
        <time>2015-06-24T08:17:51Z</time>
      </trkpt>
      <trkpt lat="42.529819" lon="1.021436">
        <ele>2658.573</ele>
        <time>2015-06-24T08:25:12Z</time>
      </trkpt>
      <trkpt lat="42.529852" lon="1.020797">
        <ele>2650.338</ele>
        <time>2015-06-24T09:02:07Z</time>
      </trkpt>
      <trkpt lat="42.529439" lon="1.020522">
        <ele>2638.896</ele>
        <time>2015-06-24T09:03:45Z</time>
      </trkpt>
      <trkpt lat="42.528995" lon="1.019636">
        <ele>2601.831</ele>
        <time>2015-06-24T09:07:22Z</time>
      </trkpt>
      <trkpt lat="42.528845" lon="1.019724">
        <ele>2608.124</ele>
        <time>2015-06-24T09:08:08Z</time>
      </trkpt>
      <trkpt lat="42.528893" lon="1.018785">
        <ele>2561.208</ele>
        <time>2015-06-24T09:14:55Z</time>
      </trkpt>
      <trkpt lat="42.528693" lon="1.018334">
        <ele>2540.210</ele>
        <time>2015-06-24T09:17:27Z</time>
      </trkpt>
      <trkpt lat="42.527389" lon="1.017085">
        <ele>2568.429</ele>
        <time>2015-06-24T09:29:44Z</time>
      </trkpt>
      <trkpt lat="42.527176" lon="1.015702">
        <ele>2576.089</ele>
        <time>2015-06-24T09:34:40Z</time>
      </trkpt>
      <trkpt lat="42.527333" lon="1.014632">
        <ele>2551.988</ele>
        <time>2015-06-24T09:37:58Z</time>
      </trkpt>
      <trkpt lat="42.527710" lon="1.014107">
        <ele>2537.532</ele>
        <time>2015-06-24T09:40:30Z</time>
      </trkpt>
      <trkpt lat="42.527515" lon="1.012650">
        <ele>2525.585</ele>
        <time>2015-06-24T09:45:56Z</time>
      </trkpt>
      <trkpt lat="42.527824" lon="1.011840">
        <ele>2526.986</ele>
        <time>2015-06-24T09:47:54Z</time>
      </trkpt>
      <trkpt lat="42.527574" lon="1.010717">
        <ele>2500.651</ele>
        <time>2015-06-24T09:50:49Z</time>
      </trkpt>
      <trkpt lat="42.527705" lon="1.010223">
        <ele>2495.443</ele>
        <time>2015-06-24T09:53:41Z</time>
      </trkpt>
      <trkpt lat="42.527617" lon="1.010315">
        <ele>2491.964</ele>
        <time>2015-06-24T09:54:35Z</time>
      </trkpt>
      <trkpt lat="42.527468" lon="1.010198">
        <ele>2476.310</ele>
        <time>2015-06-24T09:56:47Z</time>
      </trkpt>
      <trkpt lat="42.527362" lon="1.009457">
        <ele>2449.008</ele>
        <time>2015-06-24T10:00:21Z</time>
      </trkpt>
      <trkpt lat="42.527030" lon="1.009878">
        <ele>2438.945</ele>
        <time>2015-06-24T10:02:23Z</time>
      </trkpt>
      <trkpt lat="42.527152" lon="1.008690">
        <ele>2434.864</ele>
        <time>2015-06-24T10:05:07Z</time>
      </trkpt>
      <trkpt lat="42.527274" lon="1.008601">
        <ele>2440.214</ele>
        <time>2015-06-24T10:06:40Z</time>
      </trkpt>
      <trkpt lat="42.527165" lon="1.007025">
        <ele>2448.793</ele>
        <time>2015-06-24T10:10:34Z</time>
      </trkpt>
      <trkpt lat="42.526908" lon="1.006377">
        <ele>2453.247</ele>
        <time>2015-06-24T10:12:16Z</time>
      </trkpt>
      <trkpt lat="42.526534" lon="1.006223">
        <ele>2444.850</ele>
        <time>2015-06-24T10:13:44Z</time>
      </trkpt>
      <trkpt lat="42.526112" lon="1.004933">
        <ele>2457.281</ele>
        <time>2015-06-24T10:16:33Z</time>
      </trkpt>
      <trkpt lat="42.525669" lon="1.005159">
        <ele>2451.416</ele>
        <time>2015-06-24T10:17:31Z</time>
      </trkpt>
      <trkpt lat="42.524840" lon="1.005190">
        <ele>2440.752</ele>
        <time>2015-06-24T10:19:37Z</time>
      </trkpt>
      <trkpt lat="42.524268" lon="1.004298">
        <ele>2441.253</ele>
        <time>2015-06-24T10:21:36Z</time>
      </trkpt>
      <trkpt lat="42.523608" lon="1.004001">
        <ele>2425.908</ele>
        <time>2015-06-24T10:23:09Z</time>
      </trkpt>
      <trkpt lat="42.523401" lon="1.003479">
        <ele>2420.508</ele>
        <time>2015-06-24T10:24:38Z</time>
      </trkpt>
      <trkpt lat="42.523548" lon="1.003026">
        <ele>2422.266</ele>
        <time>2015-06-24T10:26:20Z</time>
      </trkpt>
      <trkpt lat="42.523450" lon="1.002459">
        <ele>2425.755</ele>
        <time>2015-06-24T10:27:15Z</time>
      </trkpt>
      <trkpt lat="42.522466" lon="1.000305">
        <ele>2423.965</ele>
        <time>2015-06-24T10:31:43Z</time>
      </trkpt>
      <trkpt lat="42.520392" lon="0.997689">
        <ele>2427.594</ele>
        <time>2015-06-24T10:39:35Z</time>
      </trkpt>
      <trkpt lat="42.520155" lon="0.997810">
        <ele>2430.188</ele>
        <time>2015-06-24T10:40:08Z</time>
      </trkpt>
      <trkpt lat="42.519624" lon="0.999057">
        <ele>2418.331</ele>
        <time>2015-06-24T10:42:47Z</time>
      </trkpt>
      <trkpt lat="42.519377" lon="0.999270">
        <ele>2409.162</ele>
        <time>2015-06-24T10:43:23Z</time>
      </trkpt>
      <trkpt lat="42.519440" lon="0.999542">
        <ele>2405.557</ele>
        <time>2015-06-24T10:44:16Z</time>
      </trkpt>
      <trkpt lat="42.519293" lon="0.999664">
        <ele>2400.389</ele>
        <time>2015-06-24T10:45:19Z</time>
      </trkpt>
      <trkpt lat="42.519591" lon="1.000079">
        <ele>2401.506</ele>
        <time>2015-06-24T10:46:40Z</time>
      </trkpt>
      <trkpt lat="42.519494" lon="1.001114">
        <ele>2397.926</ele>
        <time>2015-06-24T10:49:27Z</time>
      </trkpt>
      <trkpt lat="42.519554" lon="1.001047">
        <ele>2416.844</ele>
        <time>2020-09-09T07:32:45Z</time>
      </trkpt>
      <trkpt lat="42.519539" lon="0.999975">
        <ele>2394.305</ele>
        <time>2020-09-09T07:34:28Z</time>
      </trkpt>
      <trkpt lat="42.519253" lon="0.999614">
        <ele>2391.515</ele>
        <time>2020-09-09T07:35:29Z</time>
      </trkpt>
      <trkpt lat="42.519199" lon="0.999697">
        <ele>2387.908</ele>
        <time>2020-09-09T07:36:06Z</time>
      </trkpt>
      <trkpt lat="42.518378" lon="0.999036">
        <ele>2381.729</ele>
        <time>2020-09-09T07:37:37Z</time>
      </trkpt>
      <trkpt lat="42.517969" lon="0.997832">
        <ele>2373.750</ele>
        <time>2020-09-09T07:39:24Z</time>
      </trkpt>
      <trkpt lat="42.517720" lon="0.997757">
        <ele>2368.128</ele>
        <time>2020-09-09T07:39:52Z</time>
      </trkpt>
      <trkpt lat="42.517639" lon="0.997524">
        <ele>2364.661</ele>
        <time>2020-09-09T07:40:28Z</time>
      </trkpt>
      <trkpt lat="42.517376" lon="0.997582">
        <ele>2360.381</ele>
        <time>2020-09-09T07:41:03Z</time>
      </trkpt>
      <trkpt lat="42.517461" lon="0.997058">
        <ele>2352.148</ele>
        <time>2020-09-09T07:41:48Z</time>
      </trkpt>
      <trkpt lat="42.517356" lon="0.995925">
        <ele>2342.490</ele>
        <time>2020-09-09T07:43:15Z</time>
      </trkpt>
      <trkpt lat="42.517105" lon="0.995522">
        <ele>2332.778</ele>
        <time>2020-09-09T07:43:52Z</time>
      </trkpt>
      <trkpt lat="42.516995" lon="0.995465">
        <ele>2328.081</ele>
        <time>2020-09-09T07:44:00Z</time>
      </trkpt>
      <trkpt lat="42.517089" lon="0.995624">
        <ele>2348.261</ele>
        <time>2020-09-09T07:44:17Z</time>
      </trkpt>
      <trkpt lat="42.516976" lon="0.995738">
        <ele>2336.717</ele>
        <time>2020-09-09T07:44:35Z</time>
      </trkpt>
      <trkpt lat="42.516912" lon="0.995648">
        <ele>2331.008</ele>
        <time>2020-09-09T07:44:49Z</time>
      </trkpt>
      <trkpt lat="42.517231" lon="0.994989">
        <ele>2324.893</ele>
        <time>2020-09-09T07:45:55Z</time>
      </trkpt>
      <trkpt lat="42.517263" lon="0.994529">
        <ele>2325.854</ele>
        <time>2020-09-09T07:46:31Z</time>
      </trkpt>
      <trkpt lat="42.516974" lon="0.993983">
        <ele>2317.142</ele>
        <time>2020-09-09T07:47:23Z</time>
      </trkpt>
      <trkpt lat="42.516726" lon="0.993849">
        <ele>2311.825</ele>
        <time>2020-09-09T07:47:50Z</time>
      </trkpt>
      <trkpt lat="42.516631" lon="0.993037">
        <ele>2304.845</ele>
        <time>2020-09-09T07:49:05Z</time>
      </trkpt>
      <trkpt lat="42.516752" lon="0.992820">
        <ele>2279.752</ele>
        <time>2020-09-09T07:50:37Z</time>
      </trkpt>
      <trkpt lat="42.516926" lon="0.993006">
        <ele>2299.374</ele>
        <time>2020-09-09T07:51:03Z</time>
      </trkpt>
      <trkpt lat="42.516953" lon="0.992919">
        <ele>2302.332</ele>
        <time>2020-09-09T07:51:07Z</time>
      </trkpt>
      <trkpt lat="42.516622" lon="0.992311">
        <ele>2292.689</ele>
        <time>2020-09-09T07:51:38Z</time>
      </trkpt>
      <trkpt lat="42.516778" lon="0.992238">
        <ele>2297.206</ele>
        <time>2020-09-09T07:51:55Z</time>
      </trkpt>
      <trkpt lat="42.516737" lon="0.991234">
        <ele>2292.326</ele>
        <time>2020-09-09T07:52:56Z</time>
      </trkpt>
      <trkpt lat="42.517323" lon="0.990582">
        <ele>2291.708</ele>
        <time>2020-09-09T07:53:55Z</time>
      </trkpt>
      <trkpt lat="42.517741" lon="0.989674">
        <ele>2288.153</ele>
        <time>2020-09-09T07:55:03Z</time>
      </trkpt>
      <trkpt lat="42.517925" lon="0.988178">
        <ele>2296.964</ele>
        <time>2020-09-09T07:56:29Z</time>
      </trkpt>
      <trkpt lat="42.518721" lon="0.987206">
        <ele>2294.142</ele>
        <time>2020-09-09T07:58:18Z</time>
      </trkpt>
      <trkpt lat="42.518582" lon="0.987019">
        <ele>2287.215</ele>
        <time>2020-09-09T07:59:15Z</time>
      </trkpt>
      <trkpt lat="42.518725" lon="0.986499">
        <ele>2284.045</ele>
        <time>2020-09-09T08:00:15Z</time>
      </trkpt>
      <trkpt lat="42.519501" lon="0.985881">
        <ele>2289.422</ele>
        <time>2020-09-09T08:02:01Z</time>
      </trkpt>
      <trkpt lat="42.519479" lon="0.985647">
        <ele>2292.934</ele>
        <time>2020-09-09T08:02:26Z</time>
      </trkpt>
      <trkpt lat="42.519787" lon="0.985152">
        <ele>2290.522</ele>
        <time>2020-09-09T08:03:27Z</time>
      </trkpt>
      <trkpt lat="42.519893" lon="0.984616">
        <ele>2284.489</ele>
        <time>2020-09-09T08:04:00Z</time>
      </trkpt>
      <trkpt lat="42.520330" lon="0.983864">
        <ele>2279.006</ele>
        <time>2020-09-09T08:05:04Z</time>
      </trkpt>
      <trkpt lat="42.520430" lon="0.982771">
        <ele>2277.426</ele>
        <time>2020-09-09T08:06:29Z</time>
      </trkpt>
      <trkpt lat="42.520656" lon="0.982088">
        <ele>2274.008</ele>
        <time>2020-09-09T08:07:20Z</time>
      </trkpt>
      <trkpt lat="42.521639" lon="0.981666">
        <ele>2273.483</ele>
        <time>2020-09-09T08:08:57Z</time>
      </trkpt>
      <trkpt lat="42.521882" lon="0.981134">
        <ele>2279.934</ele>
        <time>2020-09-09T08:09:48Z</time>
      </trkpt>
      <trkpt lat="42.522266" lon="0.980830">
        <ele>2289.192</ele>
        <time>2020-09-09T08:11:07Z</time>
      </trkpt>
      <trkpt lat="42.522419" lon="0.980090">
        <ele>2302.355</ele>
        <time>2020-09-09T08:12:40Z</time>
      </trkpt>
      <trkpt lat="42.522321" lon="0.979854">
        <ele>2297.545</ele>
        <time>2020-09-09T08:13:14Z</time>
      </trkpt>
      <trkpt lat="42.522692" lon="0.979337">
        <ele>2298.592</ele>
        <time>2020-09-09T08:14:23Z</time>
      </trkpt>
      <trkpt lat="42.522657" lon="0.978937">
        <ele>2308.854</ele>
        <time>2020-09-09T08:15:26Z</time>
      </trkpt>
      <trkpt lat="42.522836" lon="0.978991">
        <ele>2310.072</ele>
        <time>2020-09-09T08:15:30Z</time>
      </trkpt>
      <trkpt lat="42.523840" lon="0.977680">
        <ele>2305.526</ele>
        <time>2020-09-09T08:17:45Z</time>
      </trkpt>
      <trkpt lat="42.524108" lon="0.977707">
        <ele>2299.447</ele>
        <time>2020-09-09T08:18:26Z</time>
      </trkpt>
      <trkpt lat="42.525819" lon="0.976604">
        <ele>2294.011</ele>
        <time>2020-09-09T08:22:02Z</time>
      </trkpt>
      <trkpt lat="42.526830" lon="0.975214">
        <ele>2316.708</ele>
        <time>2020-09-09T08:25:58Z</time>
      </trkpt>
      <trkpt lat="42.528219" lon="0.974926">
        <ele>2333.017</ele>
        <time>2020-09-09T08:30:25Z</time>
      </trkpt>
      <trkpt lat="42.528397" lon="0.974722">
        <ele>2329.028</ele>
        <time>2020-09-09T08:31:14Z</time>
      </trkpt>
      <trkpt lat="42.528375" lon="0.974910">
        <ele>2325.776</ele>
        <time>2020-09-09T08:31:46Z</time>
      </trkpt>
      <trkpt lat="42.528592" lon="0.974462">
        <ele>2320.939</ele>
        <time>2020-09-09T08:32:55Z</time>
      </trkpt>
      <trkpt lat="42.528812" lon="0.974717">
        <ele>2311.439</ele>
        <time>2020-09-09T08:33:47Z</time>
      </trkpt>
      <trkpt lat="42.529378" lon="0.974207">
        <ele>2293.186</ele>
        <time>2020-09-09T08:35:43Z</time>
      </trkpt>
      <trkpt lat="42.529685" lon="0.974465">
        <ele>2286.298</ele>
        <time>2020-09-09T08:37:10Z</time>
      </trkpt>
      <trkpt lat="42.530287" lon="0.974212">
        <ele>2283.626</ele>
        <time>2020-09-09T08:38:18Z</time>
      </trkpt>
      <trkpt lat="42.530423" lon="0.974791">
        <ele>2290.868</ele>
        <time>2020-09-09T08:39:27Z</time>
      </trkpt>
      <trkpt lat="42.531170" lon="0.975094">
        <ele>2297.342</ele>
        <time>2020-09-09T08:41:00Z</time>
      </trkpt>
      <trkpt lat="42.531404" lon="0.974870">
        <ele>2300.426</ele>
        <time>2020-09-09T08:41:31Z</time>
      </trkpt>
      <trkpt lat="42.532024" lon="0.974647">
        <ele>2306.708</ele>
        <time>2020-09-09T08:42:39Z</time>
      </trkpt>
      <trkpt lat="42.532618" lon="0.973985">
        <ele>2311.741</ele>
        <time>2020-09-09T08:44:27Z</time>
      </trkpt>
      <trkpt lat="42.533108" lon="0.973788">
        <ele>2307.592</ele>
        <time>2020-09-09T08:45:13Z</time>
      </trkpt>
      <trkpt lat="42.533443" lon="0.973126">
        <ele>2306.910</ele>
        <time>2020-09-09T08:46:08Z</time>
      </trkpt>
      <trkpt lat="42.533845" lon="0.972752">
        <ele>2313.213</ele>
        <time>2020-09-09T08:47:03Z</time>
      </trkpt>
      <trkpt lat="42.533944" lon="0.972195">
        <ele>2320.443</ele>
        <time>2020-09-09T08:48:03Z</time>
      </trkpt>
      <trkpt lat="42.534161" lon="0.972307">
        <ele>2326.670</ele>
        <time>2020-09-09T08:48:47Z</time>
      </trkpt>
      <trkpt lat="42.534387" lon="0.971696">
        <ele>2327.892</ele>
        <time>2020-09-09T08:50:22Z</time>
      </trkpt>
      <trkpt lat="42.535129" lon="0.971186">
        <ele>2325.080</ele>
        <time>2020-09-09T08:51:48Z</time>
      </trkpt>
      <trkpt lat="42.535437" lon="0.970533">
        <ele>2328.037</ele>
        <time>2020-09-09T08:52:37Z</time>
      </trkpt>
      <trkpt lat="42.535757" lon="0.970266">
        <ele>2332.049</ele>
        <time>2020-09-09T08:53:13Z</time>
      </trkpt>
      <trkpt lat="42.535680" lon="0.969519">
        <ele>2335.113</ele>
        <time>2020-09-09T08:54:09Z</time>
      </trkpt>
      <trkpt lat="42.536079" lon="0.969244">
        <ele>2335.808</ele>
        <time>2020-09-09T08:54:47Z</time>
      </trkpt>
      <trkpt lat="42.536486" lon="0.969209">
        <ele>2338.538</ele>
        <time>2020-09-09T08:55:32Z</time>
      </trkpt>
      <trkpt lat="42.536653" lon="0.968957">
        <ele>2338.989</ele>
        <time>2020-09-09T08:55:59Z</time>
      </trkpt>
      <trkpt lat="42.536800" lon="0.968997">
        <ele>2340.097</ele>
        <time>2020-09-09T08:56:18Z</time>
      </trkpt>
      <trkpt lat="42.538241" lon="0.967645">
        <ele>2345.190</ele>
        <time>2020-09-09T09:00:02Z</time>
      </trkpt>
      <trkpt lat="42.538455" lon="0.967114">
        <ele>2345.530</ele>
        <time>2020-09-09T09:00:44Z</time>
      </trkpt>
      <trkpt lat="42.538842" lon="0.966791">
        <ele>2344.457</ele>
        <time>2020-09-09T09:01:24Z</time>
      </trkpt>
      <trkpt lat="42.539384" lon="0.965910">
        <ele>2350.799</ele>
        <time>2020-09-09T09:12:24Z</time>
      </trkpt>
      <trkpt lat="42.539761" lon="0.963272">
        <ele>2419.117</ele>
        <time>2020-09-09T09:20:59Z</time>
      </trkpt>
      <trkpt lat="42.540023" lon="0.963331">
        <ele>2428.183</ele>
        <time>2020-09-09T09:23:47Z</time>
      </trkpt>
      <trkpt lat="42.540319" lon="0.963116">
        <ele>2435.825</ele>
        <time>2020-09-09T09:24:38Z</time>
      </trkpt>
      <trkpt lat="42.539907" lon="0.961510">
        <ele>2476.817</ele>
        <time>2020-09-09T09:29:48Z</time>
      </trkpt>
      <trkpt lat="42.540586" lon="0.960895">
        <ele>2492.908</ele>
        <time>2020-09-09T09:31:34Z</time>
      </trkpt>
      <trkpt lat="42.540591" lon="0.960752">
        <ele>2496.563</ele>
        <time>2020-09-09T09:31:53Z</time>
      </trkpt>
      <trkpt lat="42.540793" lon="0.960793">
        <ele>2506.584</ele>
        <time>2020-09-09T09:33:01Z</time>
      </trkpt>
      <trkpt lat="42.540839" lon="0.960443">
        <ele>2520.672</ele>
        <time>2020-09-09T09:35:02Z</time>
      </trkpt>
      <trkpt lat="42.541161" lon="0.960528">
        <ele>2540.495</ele>
        <time>2020-09-09T09:36:52Z</time>
      </trkpt>
      <trkpt lat="42.541054" lon="0.960048">
        <ele>2554.185</ele>
        <time>2020-09-09T09:38:15Z</time>
      </trkpt>
      <trkpt lat="42.541388" lon="0.959682">
        <ele>2540.722</ele>
        <time>2020-09-09T09:44:44Z</time>
      </trkpt>
      <trkpt lat="42.541348" lon="0.959231">
        <ele>2530.284</ele>
        <time>2020-09-09T09:46:33Z</time>
      </trkpt>
      <trkpt lat="42.541472" lon="0.959322">
        <ele>2525.552</ele>
        <time>2020-09-09T09:46:49Z</time>
      </trkpt>
      <trkpt lat="42.541702" lon="0.958976">
        <ele>2512.863</ele>
        <time>2020-09-09T09:48:27Z</time>
      </trkpt>
      <trkpt lat="42.541762" lon="0.958015">
        <ele>2488.744</ele>
        <time>2020-09-09T09:51:57Z</time>
      </trkpt>
      <trkpt lat="42.542063" lon="0.957859">
        <ele>2477.518</ele>
        <time>2020-09-09T09:52:38Z</time>
      </trkpt>
      <trkpt lat="42.542758" lon="0.956473">
        <ele>2448.308</ele>
        <time>2020-09-09T09:55:28Z</time>
      </trkpt>
      <trkpt lat="42.542998" lon="0.956433">
        <ele>2442.341</ele>
        <time>2020-09-09T09:56:21Z</time>
      </trkpt>
      <trkpt lat="42.543323" lon="0.955337">
        <ele>2432.162</ele>
        <time>2020-09-09T09:57:51Z</time>
      </trkpt>
      <trkpt lat="42.543469" lon="0.955325">
        <ele>2426.660</ele>
        <time>2020-09-09T09:58:13Z</time>
      </trkpt>
      <trkpt lat="42.543766" lon="0.954798">
        <ele>2419.443</ele>
        <time>2020-09-09T09:59:12Z</time>
      </trkpt>
      <trkpt lat="42.544305" lon="0.954610">
        <ele>2409.283</ele>
        <time>2020-09-09T10:00:29Z</time>
      </trkpt>
      <trkpt lat="42.544398" lon="0.954330">
        <ele>2404.960</ele>
        <time>2020-09-09T10:00:59Z</time>
      </trkpt>
      <trkpt lat="42.544493" lon="0.954486">
        <ele>2403.752</ele>
        <time>2020-09-09T10:01:31Z</time>
      </trkpt>
      <trkpt lat="42.544734" lon="0.954050">
        <ele>2396.520</ele>
        <time>2020-09-09T10:02:30Z</time>
      </trkpt>
      <trkpt lat="42.544863" lon="0.954092">
        <ele>2392.713</ele>
        <time>2020-09-09T10:02:55Z</time>
      </trkpt>
      <trkpt lat="42.545011" lon="0.953824">
        <ele>2392.243</ele>
        <time>2020-09-09T10:03:39Z</time>
      </trkpt>
      <trkpt lat="42.545163" lon="0.953803">
        <ele>2390.607</ele>
        <time>2020-09-09T10:04:10Z</time>
      </trkpt>
      <trkpt lat="42.545566" lon="0.952656">
        <ele>2384.708</ele>
        <time>2020-09-09T10:06:34Z</time>
      </trkpt>
      <trkpt lat="42.546552" lon="0.951438">
        <ele>2370.956</ele>
        <time>2020-09-09T10:08:51Z</time>
      </trkpt>
      <trkpt lat="42.546841" lon="0.950837">
        <ele>2363.297</ele>
        <time>2020-09-09T10:10:22Z</time>
      </trkpt>
      <trkpt lat="42.547300" lon="0.950630">
        <ele>2355.285</ele>
        <time>2020-09-09T10:11:03Z</time>
      </trkpt>
      <trkpt lat="42.547720" lon="0.950231">
        <ele>2345.188</ele>
        <time>2020-09-09T10:12:02Z</time>
      </trkpt>
      <trkpt lat="42.547939" lon="0.949774">
        <ele>2333.428</ele>
        <time>2020-09-09T10:13:08Z</time>
      </trkpt>
      <trkpt lat="42.547994" lon="0.949941">
        <ele>2334.925</ele>
        <time>2020-09-09T10:14:13Z</time>
      </trkpt>
      <trkpt lat="42.548429" lon="0.949303">
        <ele>2335.497</ele>
        <time>2020-09-09T10:15:46Z</time>
      </trkpt>
      <trkpt lat="42.548690" lon="0.949298">
        <ele>2352.165</ele>
        <time>2020-09-09T10:15:59Z</time>
      </trkpt>
      <trkpt lat="42.548702" lon="0.947303">
        <ele>2326.668</ele>
        <time>2020-09-09T10:18:04Z</time>
      </trkpt>
      <trkpt lat="42.548374" lon="0.946691">
        <ele>2329.342</ele>
        <time>2020-09-09T10:19:10Z</time>
      </trkpt>
      <trkpt lat="42.548362" lon="0.946345">
        <ele>2335.326</ele>
        <time>2020-09-09T10:19:33Z</time>
      </trkpt>
      <trkpt lat="42.548918" lon="0.946119">
        <ele>2325.008</ele>
        <time>2020-09-09T10:21:04Z</time>
      </trkpt>
      <trkpt lat="42.549153" lon="0.945820">
        <ele>2314.191</ele>
        <time>2020-09-09T10:22:11Z</time>
      </trkpt>
      <trkpt lat="42.549972" lon="0.946096">
        <ele>2316.242</ele>
        <time>2020-09-09T10:24:50Z</time>
      </trkpt>
      <trkpt lat="42.550156" lon="0.945822">
        <ele>2311.530</ele>
        <time>2020-09-09T10:25:12Z</time>
      </trkpt>
      <trkpt lat="42.550528" lon="0.945710">
        <ele>2309.353</ele>
        <time>2020-09-09T10:25:43Z</time>
      </trkpt>
      <trkpt lat="42.550717" lon="0.945207">
        <ele>2301.053</ele>
        <time>2020-09-09T10:26:42Z</time>
      </trkpt>
      <trkpt lat="42.551021" lon="0.945046">
        <ele>2293.970</ele>
        <time>2020-09-09T10:27:51Z</time>
      </trkpt>
      <trkpt lat="42.551641" lon="0.945216">
        <ele>2298.232</ele>
        <time>2020-09-09T10:29:20Z</time>
      </trkpt>
      <trkpt lat="42.551983" lon="0.944400">
        <ele>2295.130</ele>
        <time>2020-09-09T10:30:35Z</time>
      </trkpt>
      <trkpt lat="42.552243" lon="0.942683">
        <ele>2304.877</ele>
        <time>2020-09-09T10:32:23Z</time>
      </trkpt>
      <trkpt lat="42.553102" lon="0.942575">
        <ele>2304.861</ele>
        <time>2020-09-09T10:34:35Z</time>
      </trkpt>
      <trkpt lat="42.553475" lon="0.942233">
        <ele>2306.327</ele>
        <time>2020-09-09T10:35:27Z</time>
      </trkpt>
      <trkpt lat="42.554552" lon="0.941714">
        <ele>2307.908</ele>
        <time>2020-09-09T10:37:48Z</time>
      </trkpt>
      <trkpt lat="42.554717" lon="0.941240">
        <ele>2301.342</ele>
        <time>2020-09-09T10:38:45Z</time>
      </trkpt>
      <trkpt lat="42.554657" lon="0.940036">
        <ele>2272.643</ele>
        <time>2020-09-09T10:41:22Z</time>
      </trkpt>
      <trkpt lat="42.554806" lon="0.939369">
        <ele>2247.851</ele>
        <time>2020-09-09T10:43:24Z</time>
      </trkpt>
      <trkpt lat="42.554560" lon="0.937461">
        <ele>2200.654</ele>
        <time>2020-09-09T10:48:07Z</time>
      </trkpt>
      <trkpt lat="42.554797" lon="0.937236">
        <ele>2184.214</ele>
        <time>2020-09-09T10:49:45Z</time>
      </trkpt>
      <trkpt lat="42.554936" lon="0.936166">
        <ele>2154.741</ele>
        <time>2020-09-09T10:53:55Z</time>
      </trkpt>
      <trkpt lat="42.555743" lon="0.935317">
        <ele>2137.843</ele>
        <time>2020-09-09T10:58:29Z</time>
      </trkpt>
      <trkpt lat="42.556060" lon="0.934744">
        <ele>2125.971</ele>
        <time>2020-09-09T11:00:23Z</time>
      </trkpt>
      <trkpt lat="42.556342" lon="0.933509">
        <ele>2093.994</ele>
        <time>2020-09-09T11:04:42Z</time>
      </trkpt>
      <trkpt lat="42.556090" lon="0.933083">
        <ele>2081.557</ele>
        <time>2020-09-09T11:05:59Z</time>
      </trkpt>
      <trkpt lat="42.556388" lon="0.932630">
        <ele>2065.522</ele>
        <time>2020-09-09T11:07:51Z</time>
      </trkpt>
      <trkpt lat="42.556644" lon="0.932535">
        <ele>2053.808</ele>
        <time>2020-09-09T11:09:04Z</time>
      </trkpt>
      <trkpt lat="42.556454" lon="0.932042">
        <ele>2036.914</ele>
        <time>2020-09-09T11:10:42Z</time>
      </trkpt>
      <trkpt lat="42.557381" lon="0.931453">
        <ele>2000.165</ele>
        <time>2020-09-09T11:15:16Z</time>
      </trkpt>
      <trkpt lat="42.557720" lon="0.930803">
        <ele>1976.743</ele>
        <time>2020-09-09T11:18:18Z</time>
      </trkpt>
      <trkpt lat="42.558683" lon="0.930426">
        <ele>1949.276</ele>
        <time>2020-09-09T11:21:18Z</time>
      </trkpt>
      <trkpt lat="42.558251" lon="0.929824">
        <ele>1937.046</ele>
        <time>2020-09-09T11:23:28Z</time>
      </trkpt>
      <trkpt lat="42.558428" lon="0.929915">
        <ele>1934.323</ele>
        <time>2020-09-09T11:24:35Z</time>
      </trkpt>
      <trkpt lat="42.558706" lon="0.929609">
        <ele>1924.875</ele>
        <time>2020-09-09T11:26:10Z</time>
      </trkpt>
      <trkpt lat="42.559348" lon="0.929815">
        <ele>1908.643</ele>
        <time>2020-09-09T11:28:44Z</time>
      </trkpt>
      <trkpt lat="42.559445" lon="0.929383">
        <ele>1901.418</ele>
        <time>2020-09-09T11:29:29Z</time>
      </trkpt>
      <trkpt lat="42.559355" lon="0.929128">
        <ele>1887.498</ele>
        <time>2020-09-09T11:30:32Z</time>
      </trkpt>
      <trkpt lat="42.559685" lon="0.928714">
        <ele>1904.017</ele>
        <time>2020-09-09T11:32:56Z</time>
      </trkpt>
      <trkpt lat="42.559511" lon="0.928472">
        <ele>1886.008</ele>
        <time>2020-09-09T11:33:45Z</time>
      </trkpt>
      <trkpt lat="42.559555" lon="0.928285">
        <ele>1881.286</ele>
        <time>2020-09-09T11:34:13Z</time>
      </trkpt>
      <trkpt lat="42.559804" lon="0.928103">
        <ele>1871.757</ele>
        <time>2020-09-09T11:35:16Z</time>
      </trkpt>
      <trkpt lat="42.559660" lon="0.927493">
        <ele>1859.045</ele>
        <time>2020-09-09T11:36:47Z</time>
      </trkpt>
      <trkpt lat="42.559966" lon="0.927241">
        <ele>1856.698</ele>
        <time>2020-09-09T11:38:15Z</time>
      </trkpt>
      <trkpt lat="42.559708" lon="0.927135">
        <ele>1855.068</ele>
        <time>2020-09-09T11:38:53Z</time>
      </trkpt>
      <trkpt lat="42.559600" lon="0.927233">
        <ele>1856.435</ele>
        <time>2020-09-09T11:39:25Z</time>
      </trkpt>
      <trkpt lat="42.559425" lon="0.927074">
        <ele>1855.337</ele>
        <time>2020-09-09T11:39:55Z</time>
      </trkpt>
      <trkpt lat="42.559386" lon="0.926365">
        <ele>1850.515</ele>
        <time>2020-09-09T11:41:02Z</time>
      </trkpt>
      <trkpt lat="42.558710" lon="0.925116">
        <ele>1851.043</ele>
        <time>2020-09-09T11:46:32Z</time>
      </trkpt>
      <trkpt lat="42.557132" lon="0.924312">
        <ele>1832.564</ele>
        <time>2020-09-09T11:49:41Z</time>
      </trkpt>
      <trkpt lat="42.556797" lon="0.923929">
        <ele>1833.310</ele>
        <time>2020-09-09T11:50:24Z</time>
      </trkpt>
      <trkpt lat="42.556608" lon="0.924059">
        <ele>1832.108</ele>
        <time>2020-09-09T11:50:48Z</time>
      </trkpt>
      <trkpt lat="42.555991" lon="0.923675">
        <ele>1829.399</ele>
        <time>2020-09-09T11:51:58Z</time>
      </trkpt>
      <trkpt lat="42.554849" lon="0.922276">
        <ele>1825.770</ele>
        <time>2020-09-09T11:54:18Z</time>
      </trkpt>
      <trkpt lat="42.554551" lon="0.921594">
        <ele>1826.688</ele>
        <time>2020-09-09T11:55:15Z</time>
      </trkpt>
      <trkpt lat="42.553771" lon="0.921244">
        <ele>1823.541</ele>
        <time>2020-09-09T11:56:33Z</time>
      </trkpt>
      <trkpt lat="42.553687" lon="0.920478">
        <ele>1822.071</ele>
        <time>2020-09-09T11:57:19Z</time>
      </trkpt>
      <trkpt lat="42.552586" lon="0.918742">
        <ele>1821.158</ele>
        <time>2020-09-09T11:59:53Z</time>
      </trkpt>
      <trkpt lat="42.552428" lon="0.918044">
        <ele>1821.250</ele>
        <time>2020-09-09T12:00:47Z</time>
      </trkpt>
      <trkpt lat="42.552040" lon="0.917389">
        <ele>1820.558</ele>
        <time>2020-09-09T12:01:46Z</time>
      </trkpt>
      <trkpt lat="42.551708" lon="0.916010">
        <ele>1820.232</ele>
        <time>2020-09-09T12:03:21Z</time>
      </trkpt>
      <trkpt lat="42.551340" lon="0.915247">
        <ele>1821.392</ele>
        <time>2020-09-09T12:04:21Z</time>
      </trkpt>
      <trkpt lat="42.551191" lon="0.913864">
        <ele>1819.711</ele>
        <time>2020-09-09T12:05:53Z</time>
      </trkpt>
      <trkpt lat="42.551340" lon="0.913141">
        <ele>1820.208</ele>
        <time>2020-09-09T12:06:44Z</time>
      </trkpt>
      <trkpt lat="42.551615" lon="0.912767">
        <ele>1825.928</ele>
        <time>2020-09-09T12:09:28Z</time>
      </trkpt>
    </trkseg>
  </trk>
</gpx>
